<?xml version="1.0" encoding="UTF-8" standalone="no" ?>
<gpx xmlns="http://www.topografix.com/GPX/1/1" xmlns:xsi="http://www.w3.org/2001/XMLSchema-instance" xsi:schemaLocation="http://www.topografix.com/GPX/1/1 http://www.topografix.com/GPX/1/1/gpx.xsd" version="1.1" creator="VisuGPX - https://www.visugpx.com">
  <metadata>
    <name>La Bresse : Col du Brabant - la Grande Roche</name>
  </metadata>
  <trk>
    <name><![CDATA[Col du Brabant - la Grande Roche]]></name>
    <trkseg>
      <trkpt lat="47.9948" lon="6.86505">
        <ele>704.08</ele>
        <time>2014-01-12T14:20:57Z</time>
      </trkpt>
      <trkpt lat="47.99479" lon="6.86505">
        <ele>706.52</ele>
        <time>2014-01-12T14:20:35Z</time>
      </trkpt>
      <trkpt lat="47.9948" lon="6.86505">
        <ele>706.34</ele>
        <time>2014-01-12T14:20:19Z</time>
      </trkpt>
      <trkpt lat="47.99479" lon="6.865">
        <ele>706.07</ele>
        <time>2014-01-12T14:19:58Z</time>
      </trkpt>
      <trkpt lat="47.99479" lon="6.86504">
        <ele>707.13</ele>
        <time>2014-01-12T14:19:41Z</time>
      </trkpt>
      <trkpt lat="47.99468" lon="6.86509">
        <ele>707.72</ele>
        <time>2014-01-12T14:19:25Z</time>
      </trkpt>
      <trkpt lat="47.99464" lon="6.86509">
        <ele>709.25</ele>
        <time>2014-01-12T14:19:04Z</time>
      </trkpt>
      <trkpt lat="47.99442" lon="6.86508">
        <ele>711.75</ele>
        <time>2014-01-12T14:18:46Z</time>
      </trkpt>
      <trkpt lat="47.99423" lon="6.86507">
        <ele>713.68</ele>
        <time>2014-01-12T14:18:29Z</time>
      </trkpt>
      <trkpt lat="47.99416" lon="6.86495">
        <ele>715.08</ele>
        <time>2014-01-12T14:18:17Z</time>
      </trkpt>
      <trkpt lat="47.99425" lon="6.86471">
        <ele>717.66</ele>
        <time>2014-01-12T14:18:01Z</time>
      </trkpt>
      <trkpt lat="47.99435" lon="6.86443">
        <ele>719.44</ele>
        <time>2014-01-12T14:17:44Z</time>
      </trkpt>
      <trkpt lat="47.99443" lon="6.86411">
        <ele>721.38</ele>
        <time>2014-01-12T14:17:25Z</time>
      </trkpt>
      <trkpt lat="47.99451" lon="6.86367">
        <ele>723.69</ele>
        <time>2014-01-12T14:17:02Z</time>
      </trkpt>
      <trkpt lat="47.99458" lon="6.8632">
        <ele>725.7</ele>
        <time>2014-01-12T14:16:36Z</time>
      </trkpt>
      <trkpt lat="47.99461" lon="6.86282">
        <ele>727.77</ele>
        <time>2014-01-12T14:16:14Z</time>
      </trkpt>
      <trkpt lat="47.99462" lon="6.86272">
        <ele>728.31</ele>
        <time>2014-01-12T14:16:07Z</time>
      </trkpt>
      <trkpt lat="47.99463" lon="6.86245">
        <ele>729.79</ele>
        <time>2014-01-12T14:15:45Z</time>
      </trkpt>
      <trkpt lat="47.99464" lon="6.86217">
        <ele>731.45</ele>
        <time>2014-01-12T14:15:22Z</time>
      </trkpt>
      <trkpt lat="47.99459" lon="6.86185">
        <ele>733.7</ele>
        <time>2014-01-12T14:15:02Z</time>
      </trkpt>
      <trkpt lat="47.99447" lon="6.86158">
        <ele>735.68</ele>
        <time>2014-01-12T14:14:43Z</time>
      </trkpt>
      <trkpt lat="47.9944" lon="6.86142">
        <ele>736.98</ele>
        <time>2014-01-12T14:14:32Z</time>
      </trkpt>
      <trkpt lat="47.99428" lon="6.86133">
        <ele>738.18</ele>
        <time>2014-01-12T14:14:18Z</time>
      </trkpt>
      <trkpt lat="47.99407" lon="6.86127">
        <ele>740.39</ele>
        <time>2014-01-12T14:14:01Z</time>
      </trkpt>
      <trkpt lat="47.99385" lon="6.86128">
        <ele>742.61</ele>
        <time>2014-01-12T14:13:42Z</time>
      </trkpt>
      <trkpt lat="47.99373" lon="6.86121">
        <ele>744.2</ele>
        <time>2014-01-12T14:13:28Z</time>
      </trkpt>
      <trkpt lat="47.99359" lon="6.86103">
        <ele>746.29</ele>
        <time>2014-01-12T14:13:10Z</time>
      </trkpt>
      <trkpt lat="47.99352" lon="6.8609">
        <ele>747.5</ele>
        <time>2014-01-12T14:12:53Z</time>
      </trkpt>
      <trkpt lat="47.99337" lon="6.86073">
        <ele>749.43</ele>
        <time>2014-01-12T14:12:34Z</time>
      </trkpt>
      <trkpt lat="47.99318" lon="6.86068">
        <ele>750.67</ele>
        <time>2014-01-12T14:12:17Z</time>
      </trkpt>
      <trkpt lat="47.99299" lon="6.86066">
        <ele>752.25</ele>
        <time>2014-01-12T14:12:00Z</time>
      </trkpt>
      <trkpt lat="47.99275" lon="6.86059">
        <ele>754.19</ele>
        <time>2014-01-12T14:11:41Z</time>
      </trkpt>
      <trkpt lat="47.99255" lon="6.86048">
        <ele>755.89</ele>
        <time>2014-01-12T14:11:26Z</time>
      </trkpt>
      <trkpt lat="47.99254" lon="6.86047">
        <ele>755.98</ele>
        <time>2014-01-12T14:11:25Z</time>
      </trkpt>
      <trkpt lat="47.9924" lon="6.86029">
        <ele>757.48</ele>
        <time>2014-01-12T14:11:10Z</time>
      </trkpt>
      <trkpt lat="47.99236" lon="6.86025">
        <ele>758.03</ele>
        <time>2014-01-12T14:11:06Z</time>
      </trkpt>
      <trkpt lat="47.99222" lon="6.86004">
        <ele>759.96</ele>
        <time>2014-01-12T14:10:48Z</time>
      </trkpt>
      <trkpt lat="47.99203" lon="6.85978">
        <ele>762.12</ele>
        <time>2014-01-12T14:10:29Z</time>
      </trkpt>
      <trkpt lat="47.99196" lon="6.85968">
        <ele>763.35</ele>
        <time>2014-01-12T14:10:21Z</time>
      </trkpt>
      <trkpt lat="47.99191" lon="6.85955">
        <ele>764.85</ele>
        <time>2014-01-12T14:10:11Z</time>
      </trkpt>
      <trkpt lat="47.99181" lon="6.85934">
        <ele>766.88</ele>
        <time>2014-01-12T14:09:55Z</time>
      </trkpt>
      <trkpt lat="47.9918" lon="6.85931">
        <ele>767.17</ele>
        <time>2014-01-12T14:09:53Z</time>
      </trkpt>
      <trkpt lat="47.9917" lon="6.8591">
        <ele>769.89</ele>
        <time>2014-01-12T14:09:37Z</time>
      </trkpt>
      <trkpt lat="47.99157" lon="6.85886">
        <ele>772.48</ele>
        <time>2014-01-12T14:09:19Z</time>
      </trkpt>
      <trkpt lat="47.9914" lon="6.85868">
        <ele>775.01</ele>
        <time>2014-01-12T14:09:02Z</time>
      </trkpt>
      <trkpt lat="47.99128" lon="6.85849">
        <ele>777.67</ele>
        <time>2014-01-12T14:08:47Z</time>
      </trkpt>
      <trkpt lat="47.99123" lon="6.85838">
        <ele>778.68</ele>
        <time>2014-01-12T14:08:39Z</time>
      </trkpt>
      <trkpt lat="47.99123" lon="6.85834">
        <ele>778.61</ele>
        <time>2014-01-12T14:08:30Z</time>
      </trkpt>
      <trkpt lat="47.99123" lon="6.85831">
        <ele>778.75</ele>
        <time>2014-01-12T14:08:06Z</time>
      </trkpt>
      <trkpt lat="47.99121" lon="6.85823">
        <ele>780.95</ele>
        <time>2014-01-12T14:07:45Z</time>
      </trkpt>
      <trkpt lat="47.99107" lon="6.858">
        <ele>784.24</ele>
        <time>2014-01-12T14:07:25Z</time>
      </trkpt>
      <trkpt lat="47.99103" lon="6.85784">
        <ele>786.45</ele>
        <time>2014-01-12T14:07:12Z</time>
      </trkpt>
      <trkpt lat="47.99094" lon="6.85769">
        <ele>788.63</ele>
        <time>2014-01-12T14:06:58Z</time>
      </trkpt>
      <trkpt lat="47.99086" lon="6.85753">
        <ele>790.67</ele>
        <time>2014-01-12T14:06:42Z</time>
      </trkpt>
      <trkpt lat="47.9908" lon="6.85738">
        <ele>792.34</ele>
        <time>2014-01-12T14:06:23Z</time>
      </trkpt>
      <trkpt lat="47.99074" lon="6.85722">
        <ele>794.76</ele>
        <time>2014-01-12T14:06:06Z</time>
      </trkpt>
      <trkpt lat="47.99063" lon="6.85707">
        <ele>796.31</ele>
        <time>2014-01-12T14:05:52Z</time>
      </trkpt>
      <trkpt lat="47.99059" lon="6.85689">
        <ele>798.22</ele>
        <time>2014-01-12T14:05:39Z</time>
      </trkpt>
      <trkpt lat="47.99052" lon="6.8567">
        <ele>800.56</ele>
        <time>2014-01-12T14:05:24Z</time>
      </trkpt>
      <trkpt lat="47.99047" lon="6.85645">
        <ele>803.58</ele>
        <time>2014-01-12T14:05:04Z</time>
      </trkpt>
      <trkpt lat="47.99046" lon="6.85642">
        <ele>803.96</ele>
        <time>2014-01-12T14:05:02Z</time>
      </trkpt>
      <trkpt lat="47.9904" lon="6.85615">
        <ele>807.09</ele>
        <time>2014-01-12T14:04:42Z</time>
      </trkpt>
      <trkpt lat="47.99036" lon="6.85588">
        <ele>810.04</ele>
        <time>2014-01-12T14:04:25Z</time>
      </trkpt>
      <trkpt lat="47.99028" lon="6.8557">
        <ele>812.01</ele>
        <time>2014-01-12T14:04:11Z</time>
      </trkpt>
      <trkpt lat="47.99027" lon="6.85568">
        <ele>812.13</ele>
        <time>2014-01-12T14:04:10Z</time>
      </trkpt>
      <trkpt lat="47.99019" lon="6.8554">
        <ele>813.85</ele>
        <time>2014-01-12T14:03:52Z</time>
      </trkpt>
      <trkpt lat="47.9901" lon="6.85522">
        <ele>814.72</ele>
        <time>2014-01-12T14:03:37Z</time>
      </trkpt>
      <trkpt lat="47.99009" lon="6.85521">
        <ele>814.72</ele>
        <time>2014-01-12T14:03:36Z</time>
      </trkpt>
      <trkpt lat="47.98996" lon="6.85502">
        <ele>815.49</ele>
        <time>2014-01-12T14:03:21Z</time>
      </trkpt>
      <trkpt lat="47.98987" lon="6.85482">
        <ele>818.47</ele>
        <time>2014-01-12T14:03:03Z</time>
      </trkpt>
      <trkpt lat="47.98962" lon="6.85462">
        <ele>821.07</ele>
        <time>2014-01-12T14:02:40Z</time>
      </trkpt>
      <trkpt lat="47.98945" lon="6.85456">
        <ele>824.32</ele>
        <time>2014-01-12T14:02:23Z</time>
      </trkpt>
      <trkpt lat="47.98932" lon="6.85446">
        <ele>827.33</ele>
        <time>2014-01-12T14:02:07Z</time>
      </trkpt>
      <trkpt lat="47.98921" lon="6.85433">
        <ele>830.47</ele>
        <time>2014-01-12T14:01:52Z</time>
      </trkpt>
      <trkpt lat="47.98906" lon="6.85428">
        <ele>833.54</ele>
        <time>2014-01-12T14:01:34Z</time>
      </trkpt>
      <trkpt lat="47.9889" lon="6.85421">
        <ele>836.73</ele>
        <time>2014-01-12T14:01:14Z</time>
      </trkpt>
      <trkpt lat="47.98875" lon="6.85414">
        <ele>839.64</ele>
        <time>2014-01-12T14:00:58Z</time>
      </trkpt>
      <trkpt lat="47.98865" lon="6.85407">
        <ele>842.84</ele>
        <time>2014-01-12T14:00:41Z</time>
      </trkpt>
      <trkpt lat="47.98852" lon="6.85401">
        <ele>845.92</ele>
        <time>2014-01-12T14:00:21Z</time>
      </trkpt>
      <trkpt lat="47.98848" lon="6.85399">
        <ele>846.61</ele>
        <time>2014-01-12T14:00:15Z</time>
      </trkpt>
      <trkpt lat="47.98834" lon="6.85396">
        <ele>847.35</ele>
        <time>2014-01-12T13:59:45Z</time>
      </trkpt>
      <trkpt lat="47.98828" lon="6.85394">
        <ele>847.95</ele>
        <time>2014-01-12T13:59:40Z</time>
      </trkpt>
      <trkpt lat="47.98813" lon="6.85383">
        <ele>851.04</ele>
        <time>2014-01-12T13:59:23Z</time>
      </trkpt>
      <trkpt lat="47.98795" lon="6.85378">
        <ele>854.18</ele>
        <time>2014-01-12T13:59:03Z</time>
      </trkpt>
      <trkpt lat="47.98777" lon="6.85372">
        <ele>855.73</ele>
        <time>2014-01-12T13:58:48Z</time>
      </trkpt>
      <trkpt lat="47.98762" lon="6.85363">
        <ele>857.08</ele>
        <time>2014-01-12T13:58:34Z</time>
      </trkpt>
      <trkpt lat="47.98748" lon="6.85362">
        <ele>857.62</ele>
        <time>2014-01-12T13:58:11Z</time>
      </trkpt>
      <trkpt lat="47.98748" lon="6.85366">
        <ele>857.9</ele>
        <time>2014-01-12T13:58:08Z</time>
      </trkpt>
      <trkpt lat="47.98741" lon="6.85369">
        <ele>858.49</ele>
        <time>2014-01-12T13:57:54Z</time>
      </trkpt>
      <trkpt lat="47.98736" lon="6.85368">
        <ele>858.69</ele>
        <time>2014-01-12T13:57:49Z</time>
      </trkpt>
      <trkpt lat="47.98726" lon="6.85361">
        <ele>858.73</ele>
        <time>2014-01-12T13:57:38Z</time>
      </trkpt>
      <trkpt lat="47.98705" lon="6.85353">
        <ele>859.27</ele>
        <time>2014-01-12T13:57:18Z</time>
      </trkpt>
      <trkpt lat="47.98691" lon="6.85349">
        <ele>859.94</ele>
        <time>2014-01-12T13:57:04Z</time>
      </trkpt>
      <trkpt lat="47.98672" lon="6.85351">
        <ele>861.88</ele>
        <time>2014-01-12T13:56:44Z</time>
      </trkpt>
      <trkpt lat="47.98653" lon="6.85354">
        <ele>864.43</ele>
        <time>2014-01-12T13:56:23Z</time>
      </trkpt>
      <trkpt lat="47.98631" lon="6.85356">
        <ele>865.84</ele>
        <time>2014-01-12T13:56:05Z</time>
      </trkpt>
      <trkpt lat="47.98616" lon="6.85357">
        <ele>866.2</ele>
        <time>2014-01-12T13:55:40Z</time>
      </trkpt>
      <trkpt lat="47.98603" lon="6.85356">
        <ele>866.6</ele>
        <time>2014-01-12T13:55:20Z</time>
      </trkpt>
      <trkpt lat="47.98588" lon="6.85356">
        <ele>866.36</ele>
        <time>2014-01-12T13:55:03Z</time>
      </trkpt>
      <trkpt lat="47.98577" lon="6.85362">
        <ele>866.27</ele>
        <time>2014-01-12T13:54:40Z</time>
      </trkpt>
      <trkpt lat="47.98566" lon="6.85369">
        <ele>866.28</ele>
        <time>2014-01-12T13:54:31Z</time>
      </trkpt>
      <trkpt lat="47.98549" lon="6.85382">
        <ele>866.78</ele>
        <time>2014-01-12T13:54:13Z</time>
      </trkpt>
      <trkpt lat="47.98537" lon="6.854">
        <ele>867.56</ele>
        <time>2014-01-12T13:53:58Z</time>
      </trkpt>
      <trkpt lat="47.98525" lon="6.85424">
        <ele>868.15</ele>
        <time>2014-01-12T13:53:42Z</time>
      </trkpt>
      <trkpt lat="47.98514" lon="6.8545">
        <ele>868.98</ele>
        <time>2014-01-12T13:53:24Z</time>
      </trkpt>
      <trkpt lat="47.98511" lon="6.85475">
        <ele>870.19</ele>
        <time>2014-01-12T13:53:06Z</time>
      </trkpt>
      <trkpt lat="47.98511" lon="6.85502">
        <ele>872.04</ele>
        <time>2014-01-12T13:52:49Z</time>
      </trkpt>
      <trkpt lat="47.98509" lon="6.85523">
        <ele>873.5</ele>
        <time>2014-01-12T13:52:32Z</time>
      </trkpt>
      <trkpt lat="47.98511" lon="6.85557">
        <ele>875.9</ele>
        <time>2014-01-12T13:52:10Z</time>
      </trkpt>
      <trkpt lat="47.98513" lon="6.8558">
        <ele>878.76</ele>
        <time>2014-01-12T13:51:52Z</time>
      </trkpt>
      <trkpt lat="47.98518" lon="6.85611">
        <ele>881.67</ele>
        <time>2014-01-12T13:51:33Z</time>
      </trkpt>
      <trkpt lat="47.98521" lon="6.8562">
        <ele>882.13</ele>
        <time>2014-01-12T13:50:52Z</time>
      </trkpt>
      <trkpt lat="47.98512" lon="6.85616">
        <ele>882.79</ele>
        <time>2014-01-12T13:50:23Z</time>
      </trkpt>
      <trkpt lat="47.98512" lon="6.85628">
        <ele>883.7</ele>
        <time>2014-01-12T13:49:59Z</time>
      </trkpt>
      <trkpt lat="47.98504" lon="6.85642">
        <ele>885.38</ele>
        <time>2014-01-12T13:49:37Z</time>
      </trkpt>
      <trkpt lat="47.98502" lon="6.85658">
        <ele>886.96</ele>
        <time>2014-01-12T13:49:17Z</time>
      </trkpt>
      <trkpt lat="47.98506" lon="6.85667">
        <ele>887.37</ele>
        <time>2014-01-12T13:49:01Z</time>
      </trkpt>
      <trkpt lat="47.98514" lon="6.8568">
        <ele>888.91</ele>
        <time>2014-01-12T13:48:40Z</time>
      </trkpt>
      <trkpt lat="47.98522" lon="6.85688">
        <ele>890.28</ele>
        <time>2014-01-12T13:48:13Z</time>
      </trkpt>
      <trkpt lat="47.9852" lon="6.85704">
        <ele>891.92</ele>
        <time>2014-01-12T13:47:54Z</time>
      </trkpt>
      <trkpt lat="47.9852" lon="6.85719">
        <ele>893.22</ele>
        <time>2014-01-12T13:47:34Z</time>
      </trkpt>
      <trkpt lat="47.98519" lon="6.85718">
        <ele>893.48</ele>
        <time>2014-01-12T13:47:06Z</time>
      </trkpt>
      <trkpt lat="47.98524" lon="6.85729">
        <ele>893.9</ele>
        <time>2014-01-12T13:46:42Z</time>
      </trkpt>
      <trkpt lat="47.98524" lon="6.85735">
        <ele>894.47</ele>
        <time>2014-01-12T13:46:32Z</time>
      </trkpt>
      <trkpt lat="47.98509" lon="6.85743">
        <ele>895.84</ele>
        <time>2014-01-12T13:46:11Z</time>
      </trkpt>
      <trkpt lat="47.9849" lon="6.85757">
        <ele>896.99</ele>
        <time>2014-01-12T13:45:53Z</time>
      </trkpt>
      <trkpt lat="47.98469" lon="6.85761">
        <ele>898.52</ele>
        <time>2014-01-12T13:45:34Z</time>
      </trkpt>
      <trkpt lat="47.98447" lon="6.8576">
        <ele>900.77</ele>
        <time>2014-01-12T13:45:14Z</time>
      </trkpt>
      <trkpt lat="47.98426" lon="6.85748">
        <ele>902.64</ele>
        <time>2014-01-12T13:44:54Z</time>
      </trkpt>
      <trkpt lat="47.98415" lon="6.8574">
        <ele>903.34</ele>
        <time>2014-01-12T13:44:39Z</time>
      </trkpt>
      <trkpt lat="47.98406" lon="6.85731">
        <ele>904.24</ele>
        <time>2014-01-12T13:44:28Z</time>
      </trkpt>
      <trkpt lat="47.98394" lon="6.85712">
        <ele>904.07</ele>
        <time>2014-01-12T13:44:13Z</time>
      </trkpt>
      <trkpt lat="47.98382" lon="6.85692">
        <ele>903.06</ele>
        <time>2014-01-12T13:43:58Z</time>
      </trkpt>
      <trkpt lat="47.98376" lon="6.85658">
        <ele>900.92</ele>
        <time>2014-01-12T13:43:37Z</time>
      </trkpt>
      <trkpt lat="47.98375" lon="6.85646">
        <ele>900.15</ele>
        <time>2014-01-12T13:43:27Z</time>
      </trkpt>
      <trkpt lat="47.98367" lon="6.85618">
        <ele>898.71</ele>
        <time>2014-01-12T13:43:11Z</time>
      </trkpt>
      <trkpt lat="47.98365" lon="6.85592">
        <ele>897.16</ele>
        <time>2014-01-12T13:42:55Z</time>
      </trkpt>
      <trkpt lat="47.98366" lon="6.85558">
        <ele>895.86</ele>
        <time>2014-01-12T13:42:39Z</time>
      </trkpt>
      <trkpt lat="47.98368" lon="6.85533">
        <ele>895.11</ele>
        <time>2014-01-12T13:42:26Z</time>
      </trkpt>
      <trkpt lat="47.9837" lon="6.85514">
        <ele>894.68</ele>
        <time>2014-01-12T13:42:09Z</time>
      </trkpt>
      <trkpt lat="47.9837" lon="6.85502">
        <ele>892.85</ele>
        <time>2014-01-12T13:41:54Z</time>
      </trkpt>
      <trkpt lat="47.98371" lon="6.855">
        <ele>892.49</ele>
        <time>2014-01-12T13:41:26Z</time>
      </trkpt>
      <trkpt lat="47.98372" lon="6.85502">
        <ele>892.85</ele>
        <time>2014-01-12T13:40:52Z</time>
      </trkpt>
      <trkpt lat="47.98371" lon="6.85498">
        <ele>892.49</ele>
        <time>2014-01-12T13:40:20Z</time>
      </trkpt>
      <trkpt lat="47.98374" lon="6.85483">
        <ele>892.71</ele>
        <time>2014-01-12T13:40:04Z</time>
      </trkpt>
      <trkpt lat="47.98377" lon="6.85451">
        <ele>891.4</ele>
        <time>2014-01-12T13:39:45Z</time>
      </trkpt>
      <trkpt lat="47.98377" lon="6.85419">
        <ele>890.12</ele>
        <time>2014-01-12T13:39:28Z</time>
      </trkpt>
      <trkpt lat="47.98378" lon="6.8539">
        <ele>888.51</ele>
        <time>2014-01-12T13:39:14Z</time>
      </trkpt>
      <trkpt lat="47.98378" lon="6.85389">
        <ele>888.41</ele>
        <time>2014-01-12T13:39:13Z</time>
      </trkpt>
      <trkpt lat="47.98379" lon="6.85367">
        <ele>887.26</ele>
        <time>2014-01-12T13:39:01Z</time>
      </trkpt>
      <trkpt lat="47.98382" lon="6.85344">
        <ele>886.36</ele>
        <time>2014-01-12T13:38:48Z</time>
      </trkpt>
      <trkpt lat="47.98386" lon="6.85318">
        <ele>885.66</ele>
        <time>2014-01-12T13:38:33Z</time>
      </trkpt>
      <trkpt lat="47.9839" lon="6.85293">
        <ele>884.16</ele>
        <time>2014-01-12T13:38:18Z</time>
      </trkpt>
      <trkpt lat="47.98396" lon="6.85278">
        <ele>883.59</ele>
        <time>2014-01-12T13:37:50Z</time>
      </trkpt>
      <trkpt lat="47.98396" lon="6.85274">
        <ele>883.28</ele>
        <time>2014-01-12T13:37:14Z</time>
      </trkpt>
      <trkpt lat="47.984" lon="6.8525">
        <ele>881.22</ele>
        <time>2014-01-12T13:36:51Z</time>
      </trkpt>
      <trkpt lat="47.98401" lon="6.85225">
        <ele>879.32</ele>
        <time>2014-01-12T13:36:32Z</time>
      </trkpt>
      <trkpt lat="47.98401" lon="6.85194">
        <ele>876.78</ele>
        <time>2014-01-12T13:36:13Z</time>
      </trkpt>
      <trkpt lat="47.98411" lon="6.85167">
        <ele>874.53</ele>
        <time>2014-01-12T13:35:53Z</time>
      </trkpt>
      <trkpt lat="47.98412" lon="6.85146">
        <ele>872.59</ele>
        <time>2014-01-12T13:35:37Z</time>
      </trkpt>
      <trkpt lat="47.98414" lon="6.85124">
        <ele>870.68</ele>
        <time>2014-01-12T13:35:19Z</time>
      </trkpt>
      <trkpt lat="47.98414" lon="6.85102">
        <ele>868.32</ele>
        <time>2014-01-12T13:35:00Z</time>
      </trkpt>
      <trkpt lat="47.98417" lon="6.85065">
        <ele>866.13</ele>
        <time>2014-01-12T13:34:39Z</time>
      </trkpt>
      <trkpt lat="47.98419" lon="6.85045">
        <ele>863.48</ele>
        <time>2014-01-12T13:34:22Z</time>
      </trkpt>
      <trkpt lat="47.98417" lon="6.85018">
        <ele>861.12</ele>
        <time>2014-01-12T13:34:04Z</time>
      </trkpt>
      <trkpt lat="47.98408" lon="6.84992">
        <ele>859.61</ele>
        <time>2014-01-12T13:33:46Z</time>
      </trkpt>
      <trkpt lat="47.98402" lon="6.84972">
        <ele>856.8</ele>
        <time>2014-01-12T13:33:27Z</time>
      </trkpt>
      <trkpt lat="47.98394" lon="6.84951">
        <ele>855.59</ele>
        <time>2014-01-12T13:33:12Z</time>
      </trkpt>
      <trkpt lat="47.98386" lon="6.84936">
        <ele>854.56</ele>
        <time>2014-01-12T13:33:01Z</time>
      </trkpt>
      <trkpt lat="47.9838" lon="6.84915">
        <ele>853.74</ele>
        <time>2014-01-12T13:32:45Z</time>
      </trkpt>
      <trkpt lat="47.9837" lon="6.84892">
        <ele>852.17</ele>
        <time>2014-01-12T13:32:29Z</time>
      </trkpt>
      <trkpt lat="47.98361" lon="6.84871">
        <ele>850.38</ele>
        <time>2014-01-12T13:32:14Z</time>
      </trkpt>
      <trkpt lat="47.98352" lon="6.84853">
        <ele>849.48</ele>
        <time>2014-01-12T13:31:53Z</time>
      </trkpt>
      <trkpt lat="47.98341" lon="6.84836">
        <ele>847.88</ele>
        <time>2014-01-12T13:31:37Z</time>
      </trkpt>
      <trkpt lat="47.98319" lon="6.84821">
        <ele>847.63</ele>
        <time>2014-01-12T13:31:18Z</time>
      </trkpt>
      <trkpt lat="47.98295" lon="6.84816">
        <ele>847.02</ele>
        <time>2014-01-12T13:31:00Z</time>
      </trkpt>
      <trkpt lat="47.9827" lon="6.848">
        <ele>846.69</ele>
        <time>2014-01-12T13:30:42Z</time>
      </trkpt>
      <trkpt lat="47.98247" lon="6.84786">
        <ele>846.76</ele>
        <time>2014-01-12T13:30:25Z</time>
      </trkpt>
      <trkpt lat="47.98226" lon="6.84775">
        <ele>846.62</ele>
        <time>2014-01-12T13:30:07Z</time>
      </trkpt>
      <trkpt lat="47.98205" lon="6.84763">
        <ele>846.71</ele>
        <time>2014-01-12T13:29:53Z</time>
      </trkpt>
      <trkpt lat="47.9818" lon="6.84751">
        <ele>847.1</ele>
        <time>2014-01-12T13:29:36Z</time>
      </trkpt>
      <trkpt lat="47.98161" lon="6.84735">
        <ele>847.14</ele>
        <time>2014-01-12T13:29:21Z</time>
      </trkpt>
      <trkpt lat="47.98137" lon="6.8472">
        <ele>848.06</ele>
        <time>2014-01-12T13:29:03Z</time>
      </trkpt>
      <trkpt lat="47.98117" lon="6.84699">
        <ele>849.21</ele>
        <time>2014-01-12T13:28:41Z</time>
      </trkpt>
      <trkpt lat="47.98105" lon="6.84688">
        <ele>850.2</ele>
        <time>2014-01-12T13:28:31Z</time>
      </trkpt>
      <trkpt lat="47.98083" lon="6.84676">
        <ele>851.76</ele>
        <time>2014-01-12T13:28:13Z</time>
      </trkpt>
      <trkpt lat="47.98079" lon="6.84672">
        <ele>852</ele>
        <time>2014-01-12T13:28:09Z</time>
      </trkpt>
      <trkpt lat="47.98059" lon="6.84647">
        <ele>852.62</ele>
        <time>2014-01-12T13:27:51Z</time>
      </trkpt>
      <trkpt lat="47.98047" lon="6.84628">
        <ele>853.41</ele>
        <time>2014-01-12T13:27:36Z</time>
      </trkpt>
      <trkpt lat="47.98027" lon="6.84601">
        <ele>852.72</ele>
        <time>2014-01-12T13:27:16Z</time>
      </trkpt>
      <trkpt lat="47.98001" lon="6.84562">
        <ele>852.28</ele>
        <time>2014-01-12T13:26:50Z</time>
      </trkpt>
      <trkpt lat="47.97989" lon="6.84531">
        <ele>851.56</ele>
        <time>2014-01-12T13:26:32Z</time>
      </trkpt>
      <trkpt lat="47.97988" lon="6.84524">
        <ele>851.35</ele>
        <time>2014-01-12T13:26:28Z</time>
      </trkpt>
      <trkpt lat="47.97987" lon="6.84523">
        <ele>851.33</ele>
        <time>2014-01-12T13:26:27Z</time>
      </trkpt>
      <trkpt lat="47.97984" lon="6.84512">
        <ele>850.8</ele>
        <time>2014-01-12T13:26:12Z</time>
      </trkpt>
      <trkpt lat="47.97984" lon="6.84509">
        <ele>850.55</ele>
        <time>2014-01-12T13:26:03Z</time>
      </trkpt>
      <trkpt lat="47.9798" lon="6.8449">
        <ele>849.81</ele>
        <time>2014-01-12T13:25:48Z</time>
      </trkpt>
      <trkpt lat="47.97975" lon="6.84461">
        <ele>849.26</ele>
        <time>2014-01-12T13:25:33Z</time>
      </trkpt>
      <trkpt lat="47.97967" lon="6.84426">
        <ele>848.06</ele>
        <time>2014-01-12T13:25:14Z</time>
      </trkpt>
      <trkpt lat="47.97966" lon="6.84423">
        <ele>847.87</ele>
        <time>2014-01-12T13:25:12Z</time>
      </trkpt>
      <trkpt lat="47.97961" lon="6.84411">
        <ele>846.89</ele>
        <time>2014-01-12T13:24:47Z</time>
      </trkpt>
      <trkpt lat="47.97965" lon="6.84411">
        <ele>846.92</ele>
        <time>2014-01-12T13:24:14Z</time>
      </trkpt>
      <trkpt lat="47.97967" lon="6.84411">
        <ele>848.01</ele>
        <time>2014-01-12T13:23:50Z</time>
      </trkpt>
      <trkpt lat="47.97965" lon="6.84402">
        <ele>848.01</ele>
        <time>2014-01-12T13:23:31Z</time>
      </trkpt>
      <trkpt lat="47.9796" lon="6.84395">
        <ele>847.61</ele>
        <time>2014-01-12T13:23:11Z</time>
      </trkpt>
      <trkpt lat="47.97954" lon="6.84367">
        <ele>846.87</ele>
        <time>2014-01-12T13:22:55Z</time>
      </trkpt>
      <trkpt lat="47.97952" lon="6.84358">
        <ele>846.56</ele>
        <time>2014-01-12T13:22:49Z</time>
      </trkpt>
      <trkpt lat="47.97943" lon="6.84343">
        <ele>846.06</ele>
        <time>2014-01-12T13:22:38Z</time>
      </trkpt>
      <trkpt lat="47.97926" lon="6.84321">
        <ele>845.83</ele>
        <time>2014-01-12T13:22:20Z</time>
      </trkpt>
      <trkpt lat="47.97911" lon="6.843">
        <ele>845.81</ele>
        <time>2014-01-12T13:22:04Z</time>
      </trkpt>
      <trkpt lat="47.97908" lon="6.84298">
        <ele>845.7</ele>
        <time>2014-01-12T13:22:01Z</time>
      </trkpt>
      <trkpt lat="47.97893" lon="6.84278">
        <ele>845.43</ele>
        <time>2014-01-12T13:21:45Z</time>
      </trkpt>
      <trkpt lat="47.97881" lon="6.84267">
        <ele>844.91</ele>
        <time>2014-01-12T13:21:33Z</time>
      </trkpt>
      <trkpt lat="47.97877" lon="6.84262">
        <ele>844.94</ele>
        <time>2014-01-12T13:21:28Z</time>
      </trkpt>
      <trkpt lat="47.97876" lon="6.84257">
        <ele>844.4</ele>
        <time>2014-01-12T13:21:07Z</time>
      </trkpt>
      <trkpt lat="47.97865" lon="6.84252">
        <ele>843.76</ele>
        <time>2014-01-12T13:20:51Z</time>
      </trkpt>
      <trkpt lat="47.97851" lon="6.84242">
        <ele>843.67</ele>
        <time>2014-01-12T13:20:33Z</time>
      </trkpt>
      <trkpt lat="47.9785" lon="6.84242">
        <ele>843.13</ele>
        <time>2014-01-12T13:20:05Z</time>
      </trkpt>
      <trkpt lat="47.97836" lon="6.84241">
        <ele>841.96</ele>
        <time>2014-01-12T13:19:46Z</time>
      </trkpt>
      <trkpt lat="47.97822" lon="6.84244">
        <ele>840.49</ele>
        <time>2014-01-12T13:19:31Z</time>
      </trkpt>
      <trkpt lat="47.97819" lon="6.84246">
        <ele>840.18</ele>
        <time>2014-01-12T13:19:28Z</time>
      </trkpt>
      <trkpt lat="47.97816" lon="6.84247">
        <ele>839.86</ele>
        <time>2014-01-12T13:19:25Z</time>
      </trkpt>
      <trkpt lat="47.97804" lon="6.84264">
        <ele>838.54</ele>
        <time>2014-01-12T13:19:11Z</time>
      </trkpt>
      <trkpt lat="47.97803" lon="6.84266">
        <ele>838.4</ele>
        <time>2014-01-12T13:19:09Z</time>
      </trkpt>
      <trkpt lat="47.97801" lon="6.84271">
        <ele>837.8</ele>
        <time>2014-01-12T13:19:02Z</time>
      </trkpt>
      <trkpt lat="47.97789" lon="6.84284">
        <ele>836.3</ele>
        <time>2014-01-12T13:18:44Z</time>
      </trkpt>
      <trkpt lat="47.97786" lon="6.84287">
        <ele>836.02</ele>
        <time>2014-01-12T13:18:41Z</time>
      </trkpt>
      <trkpt lat="47.97779" lon="6.84294">
        <ele>835.35</ele>
        <time>2014-01-12T13:18:33Z</time>
      </trkpt>
      <trkpt lat="47.97763" lon="6.84313">
        <ele>833.47</ele>
        <time>2014-01-12T13:18:16Z</time>
      </trkpt>
      <trkpt lat="47.97749" lon="6.84336">
        <ele>831.14</ele>
        <time>2014-01-12T13:17:58Z</time>
      </trkpt>
      <trkpt lat="47.97734" lon="6.84362">
        <ele>829.06</ele>
        <time>2014-01-12T13:17:37Z</time>
      </trkpt>
      <trkpt lat="47.97721" lon="6.84384">
        <ele>827.72</ele>
        <time>2014-01-12T13:17:19Z</time>
      </trkpt>
      <trkpt lat="47.97707" lon="6.84406">
        <ele>826.17</ele>
        <time>2014-01-12T13:17:01Z</time>
      </trkpt>
      <trkpt lat="47.97697" lon="6.84431">
        <ele>824.7</ele>
        <time>2014-01-12T13:16:43Z</time>
      </trkpt>
      <trkpt lat="47.97691" lon="6.84446">
        <ele>823.62</ele>
        <time>2014-01-12T13:16:29Z</time>
      </trkpt>
      <trkpt lat="47.9768" lon="6.84474">
        <ele>821.38</ele>
        <time>2014-01-12T13:16:09Z</time>
      </trkpt>
      <trkpt lat="47.97675" lon="6.84485">
        <ele>820.88</ele>
        <time>2014-01-12T13:15:53Z</time>
      </trkpt>
      <trkpt lat="47.97672" lon="6.84492">
        <ele>820.7</ele>
        <time>2014-01-12T13:15:48Z</time>
      </trkpt>
      <trkpt lat="47.97666" lon="6.84517">
        <ele>818.82</ele>
        <time>2014-01-12T13:15:31Z</time>
      </trkpt>
      <trkpt lat="47.97662" lon="6.84535">
        <ele>816.37</ele>
        <time>2014-01-12T13:15:17Z</time>
      </trkpt>
      <trkpt lat="47.97654" lon="6.8455">
        <ele>814.28</ele>
        <time>2014-01-12T13:15:03Z</time>
      </trkpt>
      <trkpt lat="47.9763" lon="6.84571">
        <ele>813.26</ele>
        <time>2014-01-12T13:14:43Z</time>
      </trkpt>
      <trkpt lat="47.97627" lon="6.84575">
        <ele>813.11</ele>
        <time>2014-01-12T13:14:39Z</time>
      </trkpt>
      <trkpt lat="47.9762" lon="6.84575">
        <ele>812.73</ele>
        <time>2014-01-12T13:14:32Z</time>
      </trkpt>
      <trkpt lat="47.97609" lon="6.8458">
        <ele>811.37</ele>
        <time>2014-01-12T13:14:21Z</time>
      </trkpt>
      <trkpt lat="47.97598" lon="6.84583">
        <ele>810.84</ele>
        <time>2014-01-12T13:14:12Z</time>
      </trkpt>
      <trkpt lat="47.97596" lon="6.84584">
        <ele>810.78</ele>
        <time>2014-01-12T13:14:10Z</time>
      </trkpt>
      <trkpt lat="47.97593" lon="6.84585">
        <ele>810.77</ele>
        <time>2014-01-12T13:14:05Z</time>
      </trkpt>
      <trkpt lat="47.97581" lon="6.84587">
        <ele>809.02</ele>
        <time>2014-01-12T13:13:44Z</time>
      </trkpt>
      <trkpt lat="47.9757" lon="6.84594">
        <ele>806.89</ele>
        <time>2014-01-12T13:13:32Z</time>
      </trkpt>
      <trkpt lat="47.97553" lon="6.84607">
        <ele>803.95</ele>
        <time>2014-01-12T13:13:13Z</time>
      </trkpt>
      <trkpt lat="47.97536" lon="6.84621">
        <ele>801.2</ele>
        <time>2014-01-12T13:12:54Z</time>
      </trkpt>
      <trkpt lat="47.97517" lon="6.84638">
        <ele>799.15</ele>
        <time>2014-01-12T13:12:34Z</time>
      </trkpt>
      <trkpt lat="47.97513" lon="6.84639">
        <ele>798.75</ele>
        <time>2014-01-12T13:12:30Z</time>
      </trkpt>
      <trkpt lat="47.97502" lon="6.84649">
        <ele>797.15</ele>
        <time>2014-01-12T13:12:20Z</time>
      </trkpt>
      <trkpt lat="47.97485" lon="6.84657">
        <ele>795.56</ele>
        <time>2014-01-12T13:12:05Z</time>
      </trkpt>
      <trkpt lat="47.97482" lon="6.84656">
        <ele>795.32</ele>
        <time>2014-01-12T13:12:03Z</time>
      </trkpt>
      <trkpt lat="47.97466" lon="6.84652">
        <ele>792.88</ele>
        <time>2014-01-12T13:11:44Z</time>
      </trkpt>
      <trkpt lat="47.97448" lon="6.84645">
        <ele>790.91</ele>
        <time>2014-01-12T13:11:27Z</time>
      </trkpt>
      <trkpt lat="47.9742" lon="6.84642">
        <ele>790.09</ele>
        <time>2014-01-12T13:11:08Z</time>
      </trkpt>
      <trkpt lat="47.97401" lon="6.8465">
        <ele>789.87</ele>
        <time>2014-01-12T13:10:50Z</time>
      </trkpt>
      <trkpt lat="47.97386" lon="6.84658">
        <ele>790.14</ele>
        <time>2014-01-12T13:10:35Z</time>
      </trkpt>
      <trkpt lat="47.9737" lon="6.84668">
        <ele>790.76</ele>
        <time>2014-01-12T13:10:21Z</time>
      </trkpt>
      <trkpt lat="47.97367" lon="6.84671">
        <ele>790.89</ele>
        <time>2014-01-12T13:10:18Z</time>
      </trkpt>
      <trkpt lat="47.97359" lon="6.84676">
        <ele>791.34</ele>
        <time>2014-01-12T13:10:10Z</time>
      </trkpt>
      <trkpt lat="47.97344" lon="6.84679">
        <ele>792.65</ele>
        <time>2014-01-12T13:09:54Z</time>
      </trkpt>
      <trkpt lat="47.97324" lon="6.84675">
        <ele>793.22</ele>
        <time>2014-01-12T13:09:36Z</time>
      </trkpt>
      <trkpt lat="47.97308" lon="6.84669">
        <ele>793.58</ele>
        <time>2014-01-12T13:09:20Z</time>
      </trkpt>
      <trkpt lat="47.97292" lon="6.84666">
        <ele>794.21</ele>
        <time>2014-01-12T13:09:05Z</time>
      </trkpt>
      <trkpt lat="47.97271" lon="6.84664">
        <ele>794.61</ele>
        <time>2014-01-12T13:08:47Z</time>
      </trkpt>
      <trkpt lat="47.97244" lon="6.84666">
        <ele>793.96</ele>
        <time>2014-01-12T13:08:26Z</time>
      </trkpt>
      <trkpt lat="47.97216" lon="6.84663">
        <ele>793.91</ele>
        <time>2014-01-12T13:08:06Z</time>
      </trkpt>
      <trkpt lat="47.97193" lon="6.84664">
        <ele>793</ele>
        <time>2014-01-12T13:07:47Z</time>
      </trkpt>
      <trkpt lat="47.97176" lon="6.84659">
        <ele>792.59</ele>
        <time>2014-01-12T13:07:32Z</time>
      </trkpt>
      <trkpt lat="47.97164" lon="6.84648">
        <ele>792.68</ele>
        <time>2014-01-12T13:07:20Z</time>
      </trkpt>
      <trkpt lat="47.97152" lon="6.84631">
        <ele>792.63</ele>
        <time>2014-01-12T13:07:05Z</time>
      </trkpt>
      <trkpt lat="47.97137" lon="6.84613">
        <ele>792.88</ele>
        <time>2014-01-12T13:06:48Z</time>
      </trkpt>
      <trkpt lat="47.97122" lon="6.84597">
        <ele>792.92</ele>
        <time>2014-01-12T13:06:30Z</time>
      </trkpt>
      <trkpt lat="47.97104" lon="6.8458">
        <ele>792.27</ele>
        <time>2014-01-12T13:06:12Z</time>
      </trkpt>
      <trkpt lat="47.97089" lon="6.8456">
        <ele>791.09</ele>
        <time>2014-01-12T13:05:53Z</time>
      </trkpt>
      <trkpt lat="47.97075" lon="6.8454">
        <ele>790.09</ele>
        <time>2014-01-12T13:05:35Z</time>
      </trkpt>
      <trkpt lat="47.97056" lon="6.84512">
        <ele>788.48</ele>
        <time>2014-01-12T13:05:12Z</time>
      </trkpt>
      <trkpt lat="47.97042" lon="6.84493">
        <ele>786.78</ele>
        <time>2014-01-12T13:04:55Z</time>
      </trkpt>
      <trkpt lat="47.97027" lon="6.84471">
        <ele>785.35</ele>
        <time>2014-01-12T13:04:36Z</time>
      </trkpt>
      <trkpt lat="47.97015" lon="6.84455">
        <ele>783.78</ele>
        <time>2014-01-12T13:04:20Z</time>
      </trkpt>
      <trkpt lat="47.97" lon="6.8444">
        <ele>780.88</ele>
        <time>2014-01-12T13:04:02Z</time>
      </trkpt>
      <trkpt lat="47.96983" lon="6.84424">
        <ele>778.76</ele>
        <time>2014-01-12T13:03:44Z</time>
      </trkpt>
      <trkpt lat="47.96971" lon="6.84403">
        <ele>777.33</ele>
        <time>2014-01-12T13:03:26Z</time>
      </trkpt>
      <trkpt lat="47.96961" lon="6.84382">
        <ele>776.47</ele>
        <time>2014-01-12T13:03:11Z</time>
      </trkpt>
      <trkpt lat="47.96949" lon="6.84364">
        <ele>775.33</ele>
        <time>2014-01-12T13:02:55Z</time>
      </trkpt>
      <trkpt lat="47.96948" lon="6.84362">
        <ele>775.28</ele>
        <time>2014-01-12T13:02:53Z</time>
      </trkpt>
      <trkpt lat="47.96944" lon="6.84353">
        <ele>774.35</ele>
        <time>2014-01-12T13:02:39Z</time>
      </trkpt>
      <trkpt lat="47.96935" lon="6.84333">
        <ele>771.53</ele>
        <time>2014-01-12T13:02:20Z</time>
      </trkpt>
      <trkpt lat="47.96929" lon="6.84318">
        <ele>768.41</ele>
        <time>2014-01-12T13:02:05Z</time>
      </trkpt>
      <trkpt lat="47.96917" lon="6.84297">
        <ele>765.5</ele>
        <time>2014-01-12T13:01:44Z</time>
      </trkpt>
      <trkpt lat="47.96908" lon="6.84277">
        <ele>762.39</ele>
        <time>2014-01-12T13:01:25Z</time>
      </trkpt>
      <trkpt lat="47.96896" lon="6.84262">
        <ele>759.34</ele>
        <time>2014-01-12T13:01:06Z</time>
      </trkpt>
      <trkpt lat="47.96888" lon="6.8425">
        <ele>756.17</ele>
        <time>2014-01-12T13:00:48Z</time>
      </trkpt>
      <trkpt lat="47.96884" lon="6.84231">
        <ele>753.69</ele>
        <time>2014-01-12T13:00:31Z</time>
      </trkpt>
      <trkpt lat="47.96882" lon="6.84216">
        <ele>752.33</ele>
        <time>2014-01-12T13:00:05Z</time>
      </trkpt>
      <trkpt lat="47.96881" lon="6.84209">
        <ele>750.16</ele>
        <time>2014-01-12T12:59:43Z</time>
      </trkpt>
      <trkpt lat="47.9688" lon="6.842">
        <ele>748.92</ele>
        <time>2014-01-12T12:59:26Z</time>
      </trkpt>
      <trkpt lat="47.96885" lon="6.84176">
        <ele>746.71</ele>
        <time>2014-01-12T12:59:08Z</time>
      </trkpt>
      <trkpt lat="47.96892" lon="6.84153">
        <ele>745.09</ele>
        <time>2014-01-12T12:58:52Z</time>
      </trkpt>
      <trkpt lat="47.96889" lon="6.8415">
        <ele>745.76</ele>
        <time>2014-01-12T12:58:39Z</time>
      </trkpt>
      <trkpt lat="47.96881" lon="6.84156">
        <ele>745.54</ele>
        <time>2014-01-12T12:58:17Z</time>
      </trkpt>
      <trkpt lat="47.96886" lon="6.84163">
        <ele>745.69</ele>
        <time>2014-01-12T12:57:40Z</time>
      </trkpt>
      <trkpt lat="47.96882" lon="6.84163">
        <ele>745.69</ele>
        <time>2014-01-12T12:57:35Z</time>
      </trkpt>
      <trkpt lat="47.96868" lon="6.84162">
        <ele>743.96</ele>
        <time>2014-01-12T12:57:13Z</time>
      </trkpt>
      <trkpt lat="47.9686" lon="6.84168">
        <ele>742.8</ele>
        <time>2014-01-12T12:57:05Z</time>
      </trkpt>
      <trkpt lat="47.96848" lon="6.84172">
        <ele>742.18</ele>
        <time>2014-01-12T12:56:51Z</time>
      </trkpt>
      <trkpt lat="47.96847" lon="6.84174">
        <ele>742.07</ele>
        <time>2014-01-12T12:56:24Z</time>
      </trkpt>
      <trkpt lat="47.96848" lon="6.84168">
        <ele>739.97</ele>
        <time>2014-01-12T12:32:20Z</time>
      </trkpt>
      <trkpt lat="47.9685" lon="6.84168">
        <ele>739.84</ele>
        <time>2014-01-12T12:31:44Z</time>
      </trkpt>
      <trkpt lat="47.96852" lon="6.84165">
        <ele>739.9</ele>
        <time>2014-01-12T12:31:05Z</time>
      </trkpt>
      <trkpt lat="47.96854" lon="6.84162">
        <ele>739.35</ele>
        <time>2014-01-12T12:30:40Z</time>
      </trkpt>
      <trkpt lat="47.96852" lon="6.84164">
        <ele>739.09</ele>
        <time>2014-01-12T12:30:17Z</time>
      </trkpt>
      <trkpt lat="47.96851" lon="6.84165">
        <ele>738.88</ele>
        <time>2014-01-12T12:29:42Z</time>
      </trkpt>
      <trkpt lat="47.96855" lon="6.84165">
        <ele>738.73</ele>
        <time>2014-01-12T12:29:11Z</time>
      </trkpt>
      <trkpt lat="47.96853" lon="6.84167">
        <ele>739</ele>
        <time>2014-01-12T12:28:45Z</time>
      </trkpt>
      <trkpt lat="47.96852" lon="6.8417">
        <ele>739.75</ele>
        <time>2014-01-12T12:28:25Z</time>
      </trkpt>
      <trkpt lat="47.96847" lon="6.8416">
        <ele>737.75</ele>
        <time>2014-01-12T12:28:05Z</time>
      </trkpt>
      <trkpt lat="47.9684" lon="6.84148">
        <ele>734.83</ele>
        <time>2014-01-12T12:27:47Z</time>
      </trkpt>
      <trkpt lat="47.96835" lon="6.84146">
        <ele>735.02</ele>
        <time>2014-01-12T12:27:33Z</time>
      </trkpt>
      <trkpt lat="47.96838" lon="6.84141">
        <ele>735.04</ele>
        <time>2014-01-12T12:27:11Z</time>
      </trkpt>
      <trkpt lat="47.96841" lon="6.8414">
        <ele>734.93</ele>
        <time>2014-01-12T12:26:22Z</time>
      </trkpt>
      <trkpt lat="47.96841" lon="6.84139">
        <ele>735.19</ele>
        <time>2014-01-12T12:25:53Z</time>
      </trkpt>
      <trkpt lat="47.96848" lon="6.84144">
        <ele>737.33</ele>
        <time>2014-01-12T12:25:37Z</time>
      </trkpt>
      <trkpt lat="47.96849" lon="6.84161">
        <ele>738.33</ele>
        <time>2014-01-12T12:25:20Z</time>
      </trkpt>
      <trkpt lat="47.96857" lon="6.84172">
        <ele>740.27</ele>
        <time>2014-01-12T12:25:03Z</time>
      </trkpt>
      <trkpt lat="47.96863" lon="6.84169">
        <ele>740.65</ele>
        <time>2014-01-12T12:24:52Z</time>
      </trkpt>
      <trkpt lat="47.96857" lon="6.84162">
        <ele>740.98</ele>
        <time>2014-01-12T12:24:38Z</time>
      </trkpt>
      <trkpt lat="47.96861" lon="6.84163">
        <ele>742.43</ele>
        <time>2014-01-12T12:24:17Z</time>
      </trkpt>
      <trkpt lat="47.96871" lon="6.84164">
        <ele>744.61</ele>
        <time>2014-01-12T12:23:58Z</time>
      </trkpt>
      <trkpt lat="47.96877" lon="6.84175">
        <ele>745</ele>
        <time>2014-01-12T12:23:34Z</time>
      </trkpt>
      <trkpt lat="47.96878" lon="6.84188">
        <ele>746.63</ele>
        <time>2014-01-12T12:23:17Z</time>
      </trkpt>
      <trkpt lat="47.96878" lon="6.84206">
        <ele>749.09</ele>
        <time>2014-01-12T12:23:01Z</time>
      </trkpt>
      <trkpt lat="47.96884" lon="6.84225">
        <ele>752.2</ele>
        <time>2014-01-12T12:22:43Z</time>
      </trkpt>
      <trkpt lat="47.96884" lon="6.84249">
        <ele>755.31</ele>
        <time>2014-01-12T12:22:25Z</time>
      </trkpt>
      <trkpt lat="47.9689" lon="6.84255">
        <ele>756.84</ele>
        <time>2014-01-12T12:22:17Z</time>
      </trkpt>
      <trkpt lat="47.96902" lon="6.84268">
        <ele>759.54</ele>
        <time>2014-01-12T12:22:01Z</time>
      </trkpt>
      <trkpt lat="47.96914" lon="6.84286">
        <ele>762.66</ele>
        <time>2014-01-12T12:21:43Z</time>
      </trkpt>
      <trkpt lat="47.96924" lon="6.84302">
        <ele>765.67</ele>
        <time>2014-01-12T12:21:30Z</time>
      </trkpt>
      <trkpt lat="47.96931" lon="6.84324">
        <ele>768.76</ele>
        <time>2014-01-12T12:21:13Z</time>
      </trkpt>
      <trkpt lat="47.96935" lon="6.84338">
        <ele>771.29</ele>
        <time>2014-01-12T12:20:59Z</time>
      </trkpt>
      <trkpt lat="47.96943" lon="6.84357">
        <ele>772.28</ele>
        <time>2014-01-12T12:20:44Z</time>
      </trkpt>
      <trkpt lat="47.96955" lon="6.84378">
        <ele>773.4</ele>
        <time>2014-01-12T12:20:28Z</time>
      </trkpt>
      <trkpt lat="47.96967" lon="6.84402">
        <ele>775.05</ele>
        <time>2014-01-12T12:20:11Z</time>
      </trkpt>
      <trkpt lat="47.96972" lon="6.84416">
        <ele>776.31</ele>
        <time>2014-01-12T12:20:02Z</time>
      </trkpt>
      <trkpt lat="47.9698" lon="6.84426">
        <ele>777.6</ele>
        <time>2014-01-12T12:19:52Z</time>
      </trkpt>
      <trkpt lat="47.97003" lon="6.84446">
        <ele>780.47</ele>
        <time>2014-01-12T12:19:30Z</time>
      </trkpt>
      <trkpt lat="47.97018" lon="6.84466">
        <ele>782.4</ele>
        <time>2014-01-12T12:19:12Z</time>
      </trkpt>
      <trkpt lat="47.97037" lon="6.8449">
        <ele>783.89</ele>
        <time>2014-01-12T12:18:52Z</time>
      </trkpt>
      <trkpt lat="47.97056" lon="6.84519">
        <ele>786.12</ele>
        <time>2014-01-12T12:18:30Z</time>
      </trkpt>
      <trkpt lat="47.97073" lon="6.84547">
        <ele>787.43</ele>
        <time>2014-01-12T12:18:08Z</time>
      </trkpt>
      <trkpt lat="47.97094" lon="6.84574">
        <ele>788.36</ele>
        <time>2014-01-12T12:17:45Z</time>
      </trkpt>
      <trkpt lat="47.97112" lon="6.84591">
        <ele>788.97</ele>
        <time>2014-01-12T12:17:27Z</time>
      </trkpt>
      <trkpt lat="47.9713" lon="6.84611">
        <ele>788.82</ele>
        <time>2014-01-12T12:17:10Z</time>
      </trkpt>
      <trkpt lat="47.97145" lon="6.84631">
        <ele>788.35</ele>
        <time>2014-01-12T12:16:54Z</time>
      </trkpt>
      <trkpt lat="47.97161" lon="6.84645">
        <ele>788.03</ele>
        <time>2014-01-12T12:16:38Z</time>
      </trkpt>
      <trkpt lat="47.97166" lon="6.8465">
        <ele>787.87</ele>
        <time>2014-01-12T12:16:34Z</time>
      </trkpt>
      <trkpt lat="47.9718" lon="6.84658">
        <ele>787.66</ele>
        <time>2014-01-12T12:16:20Z</time>
      </trkpt>
      <trkpt lat="47.97195" lon="6.8466">
        <ele>788.55</ele>
        <time>2014-01-12T12:16:06Z</time>
      </trkpt>
      <trkpt lat="47.97214" lon="6.84663">
        <ele>789.19</ele>
        <time>2014-01-12T12:15:49Z</time>
      </trkpt>
      <trkpt lat="47.9724" lon="6.84665">
        <ele>789.47</ele>
        <time>2014-01-12T12:15:27Z</time>
      </trkpt>
      <trkpt lat="47.97263" lon="6.84665">
        <ele>789.83</ele>
        <time>2014-01-12T12:15:08Z</time>
      </trkpt>
      <trkpt lat="47.97266" lon="6.84666">
        <ele>789.79</ele>
        <time>2014-01-12T12:15:05Z</time>
      </trkpt>
      <trkpt lat="47.97271" lon="6.84665">
        <ele>789.68</ele>
        <time>2014-01-12T12:15:00Z</time>
      </trkpt>
      <trkpt lat="47.97296" lon="6.84667">
        <ele>789.09</ele>
        <time>2014-01-12T12:14:38Z</time>
      </trkpt>
      <trkpt lat="47.97321" lon="6.84675">
        <ele>788.4</ele>
        <time>2014-01-12T12:14:15Z</time>
      </trkpt>
      <trkpt lat="47.97328" lon="6.84678">
        <ele>788.34</ele>
        <time>2014-01-12T12:14:08Z</time>
      </trkpt>
      <trkpt lat="47.97332" lon="6.84681">
        <ele>788.39</ele>
        <time>2014-01-12T12:14:04Z</time>
      </trkpt>
      <trkpt lat="47.97336" lon="6.84689">
        <ele>788.76</ele>
        <time>2014-01-12T12:13:58Z</time>
      </trkpt>
      <trkpt lat="47.97347" lon="6.84715">
        <ele>789.48</ele>
        <time>2014-01-12T12:13:38Z</time>
      </trkpt>
      <trkpt lat="47.97362" lon="6.84737">
        <ele>791.11</ele>
        <time>2014-01-12T12:13:19Z</time>
      </trkpt>
      <trkpt lat="47.97375" lon="6.84759">
        <ele>793.51</ele>
        <time>2014-01-12T12:12:59Z</time>
      </trkpt>
      <trkpt lat="47.97381" lon="6.84779">
        <ele>795.38</ele>
        <time>2014-01-12T12:12:39Z</time>
      </trkpt>
      <trkpt lat="47.97388" lon="6.84797">
        <ele>797.29</ele>
        <time>2014-01-12T12:12:17Z</time>
      </trkpt>
      <trkpt lat="47.97391" lon="6.84805">
        <ele>798.2</ele>
        <time>2014-01-12T12:11:58Z</time>
      </trkpt>
      <trkpt lat="47.97395" lon="6.84805">
        <ele>796.82</ele>
        <time>2014-01-12T12:11:39Z</time>
      </trkpt>
      <trkpt lat="47.97399" lon="6.84804">
        <ele>797.04</ele>
        <time>2014-01-12T12:11:08Z</time>
      </trkpt>
      <trkpt lat="47.97399" lon="6.84803">
        <ele>796.78</ele>
        <time>2014-01-12T12:10:40Z</time>
      </trkpt>
      <trkpt lat="47.97394" lon="6.84805">
        <ele>796.6</ele>
        <time>2014-01-12T12:10:03Z</time>
      </trkpt>
      <trkpt lat="47.97394" lon="6.84807">
        <ele>796.49</ele>
        <time>2014-01-12T12:09:18Z</time>
      </trkpt>
      <trkpt lat="47.97395" lon="6.8481">
        <ele>796.26</ele>
        <time>2014-01-12T12:08:13Z</time>
      </trkpt>
      <trkpt lat="47.97397" lon="6.84809">
        <ele>796.71</ele>
        <time>2014-01-12T12:07:41Z</time>
      </trkpt>
      <trkpt lat="47.97393" lon="6.84807">
        <ele>797.31</ele>
        <time>2014-01-12T12:07:22Z</time>
      </trkpt>
      <trkpt lat="47.97394" lon="6.84808">
        <ele>797.51</ele>
        <time>2014-01-12T12:07:03Z</time>
      </trkpt>
      <trkpt lat="47.97395" lon="6.8481">
        <ele>798.06</ele>
        <time>2014-01-12T12:06:36Z</time>
      </trkpt>
      <trkpt lat="47.97393" lon="6.84809">
        <ele>797.29</ele>
        <time>2014-01-12T12:05:48Z</time>
      </trkpt>
      <trkpt lat="47.97392" lon="6.84807">
        <ele>797.4</ele>
        <time>2014-01-12T12:05:13Z</time>
      </trkpt>
      <trkpt lat="47.97393" lon="6.84805">
        <ele>796.83</ele>
        <time>2014-01-12T12:04:29Z</time>
      </trkpt>
      <trkpt lat="47.97394" lon="6.84807">
        <ele>797.55</ele>
        <time>2014-01-12T12:03:58Z</time>
      </trkpt>
      <trkpt lat="47.97396" lon="6.84815">
        <ele>797.84</ele>
        <time>2014-01-12T12:03:33Z</time>
      </trkpt>
      <trkpt lat="47.97404" lon="6.84819">
        <ele>799.03</ele>
        <time>2014-01-12T12:03:15Z</time>
      </trkpt>
      <trkpt lat="47.97418" lon="6.84836">
        <ele>800.38</ele>
        <time>2014-01-12T12:02:58Z</time>
      </trkpt>
      <trkpt lat="47.97431" lon="6.84853">
        <ele>802.04</ele>
        <time>2014-01-12T12:02:41Z</time>
      </trkpt>
      <trkpt lat="47.97449" lon="6.8487">
        <ele>803.98</ele>
        <time>2014-01-12T12:02:23Z</time>
      </trkpt>
      <trkpt lat="47.97467" lon="6.84883">
        <ele>806.85</ele>
        <time>2014-01-12T12:02:05Z</time>
      </trkpt>
      <trkpt lat="47.97471" lon="6.84885">
        <ele>807.47</ele>
        <time>2014-01-12T12:02:02Z</time>
      </trkpt>
      <trkpt lat="47.97478" lon="6.84888">
        <ele>808.74</ele>
        <time>2014-01-12T12:01:55Z</time>
      </trkpt>
      <trkpt lat="47.97483" lon="6.84889">
        <ele>809.42</ele>
        <time>2014-01-12T12:01:50Z</time>
      </trkpt>
      <trkpt lat="47.97502" lon="6.84894">
        <ele>812.41</ele>
        <time>2014-01-12T12:01:30Z</time>
      </trkpt>
      <trkpt lat="47.97516" lon="6.84903">
        <ele>815.44</ele>
        <time>2014-01-12T12:01:11Z</time>
      </trkpt>
      <trkpt lat="47.97525" lon="6.84911">
        <ele>818.55</ele>
        <time>2014-01-12T12:00:51Z</time>
      </trkpt>
      <trkpt lat="47.97535" lon="6.84928">
        <ele>821.24</ele>
        <time>2014-01-12T12:00:28Z</time>
      </trkpt>
      <trkpt lat="47.9754" lon="6.84942">
        <ele>823.71</ele>
        <time>2014-01-12T12:00:07Z</time>
      </trkpt>
      <trkpt lat="47.97545" lon="6.84957">
        <ele>824.82</ele>
        <time>2014-01-12T11:59:50Z</time>
      </trkpt>
      <trkpt lat="47.97545" lon="6.84966">
        <ele>826.08</ele>
        <time>2014-01-12T11:59:34Z</time>
      </trkpt>
      <trkpt lat="47.97547" lon="6.84985">
        <ele>827.32</ele>
        <time>2014-01-12T11:59:15Z</time>
      </trkpt>
      <trkpt lat="47.97543" lon="6.85008">
        <ele>829.59</ele>
        <time>2014-01-12T11:58:55Z</time>
      </trkpt>
      <trkpt lat="47.97542" lon="6.85026">
        <ele>831.63</ele>
        <time>2014-01-12T11:58:40Z</time>
      </trkpt>
      <trkpt lat="47.97539" lon="6.85052">
        <ele>834.07</ele>
        <time>2014-01-12T11:58:17Z</time>
      </trkpt>
      <trkpt lat="47.97543" lon="6.85074">
        <ele>835.86</ele>
        <time>2014-01-12T11:57:57Z</time>
      </trkpt>
      <trkpt lat="47.97548" lon="6.85093">
        <ele>837.84</ele>
        <time>2014-01-12T11:57:38Z</time>
      </trkpt>
      <trkpt lat="47.97549" lon="6.85119">
        <ele>840.69</ele>
        <time>2014-01-12T11:57:19Z</time>
      </trkpt>
      <trkpt lat="47.97548" lon="6.85141">
        <ele>843.8</ele>
        <time>2014-01-12T11:57:00Z</time>
      </trkpt>
      <trkpt lat="47.97553" lon="6.85153">
        <ele>845.89</ele>
        <time>2014-01-12T11:56:42Z</time>
      </trkpt>
      <trkpt lat="47.9756" lon="6.85161">
        <ele>847.76</ele>
        <time>2014-01-12T11:56:24Z</time>
      </trkpt>
      <trkpt lat="47.97567" lon="6.85185">
        <ele>849.44</ele>
        <time>2014-01-12T11:56:04Z</time>
      </trkpt>
      <trkpt lat="47.9757" lon="6.85216">
        <ele>851</ele>
        <time>2014-01-12T11:55:45Z</time>
      </trkpt>
      <trkpt lat="47.97582" lon="6.85245">
        <ele>852.06</ele>
        <time>2014-01-12T11:55:26Z</time>
      </trkpt>
      <trkpt lat="47.97597" lon="6.85273">
        <ele>853.54</ele>
        <time>2014-01-12T11:55:06Z</time>
      </trkpt>
      <trkpt lat="47.97605" lon="6.85301">
        <ele>854.98</ele>
        <time>2014-01-12T11:54:46Z</time>
      </trkpt>
      <trkpt lat="47.97616" lon="6.85325">
        <ele>856.23</ele>
        <time>2014-01-12T11:54:28Z</time>
      </trkpt>
      <trkpt lat="47.9763" lon="6.85345">
        <ele>858.76</ele>
        <time>2014-01-12T11:54:10Z</time>
      </trkpt>
      <trkpt lat="47.97637" lon="6.8535">
        <ele>859.33</ele>
        <time>2014-01-12T11:54:03Z</time>
      </trkpt>
      <trkpt lat="47.97639" lon="6.85352">
        <ele>859.55</ele>
        <time>2014-01-12T11:54:01Z</time>
      </trkpt>
      <trkpt lat="47.97644" lon="6.85356">
        <ele>859.92</ele>
        <time>2014-01-12T11:53:57Z</time>
      </trkpt>
      <trkpt lat="47.97658" lon="6.85369">
        <ele>861.8</ele>
        <time>2014-01-12T11:53:39Z</time>
      </trkpt>
      <trkpt lat="47.9767" lon="6.85383">
        <ele>863.19</ele>
        <time>2014-01-12T11:53:22Z</time>
      </trkpt>
      <trkpt lat="47.97677" lon="6.85393">
        <ele>863.74</ele>
        <time>2014-01-12T11:53:01Z</time>
      </trkpt>
      <trkpt lat="47.97688" lon="6.85401">
        <ele>864.39</ele>
        <time>2014-01-12T11:52:46Z</time>
      </trkpt>
      <trkpt lat="47.97697" lon="6.85421">
        <ele>865.9</ele>
        <time>2014-01-12T11:52:32Z</time>
      </trkpt>
      <trkpt lat="47.97712" lon="6.85435">
        <ele>868.48</ele>
        <time>2014-01-12T11:52:18Z</time>
      </trkpt>
      <trkpt lat="47.97704" lon="6.85423">
        <ele>868.43</ele>
        <time>2014-01-12T11:52:01Z</time>
      </trkpt>
      <trkpt lat="47.97704" lon="6.85425">
        <ele>868.54</ele>
        <time>2014-01-12T11:51:43Z</time>
      </trkpt>
      <trkpt lat="47.9771" lon="6.85435">
        <ele>868.76</ele>
        <time>2014-01-12T11:51:28Z</time>
      </trkpt>
      <trkpt lat="47.97718" lon="6.85439">
        <ele>868.86</ele>
        <time>2014-01-12T11:51:13Z</time>
      </trkpt>
      <trkpt lat="47.97721" lon="6.85446">
        <ele>868.97</ele>
        <time>2014-01-12T11:51:08Z</time>
      </trkpt>
      <trkpt lat="47.97733" lon="6.85466">
        <ele>870.44</ele>
        <time>2014-01-12T11:50:53Z</time>
      </trkpt>
      <trkpt lat="47.97747" lon="6.85488">
        <ele>872.39</ele>
        <time>2014-01-12T11:50:37Z</time>
      </trkpt>
      <trkpt lat="47.97754" lon="6.855">
        <ele>872.59</ele>
        <time>2014-01-12T11:50:29Z</time>
      </trkpt>
      <trkpt lat="47.97757" lon="6.85505">
        <ele>872.81</ele>
        <time>2014-01-12T11:50:25Z</time>
      </trkpt>
      <trkpt lat="47.97761" lon="6.85512">
        <ele>872.97</ele>
        <time>2014-01-12T11:50:19Z</time>
      </trkpt>
      <trkpt lat="47.97767" lon="6.85534">
        <ele>873.46</ele>
        <time>2014-01-12T11:50:05Z</time>
      </trkpt>
      <trkpt lat="47.97774" lon="6.8556">
        <ele>873.43</ele>
        <time>2014-01-12T11:49:49Z</time>
      </trkpt>
      <trkpt lat="47.9778" lon="6.85584">
        <ele>873.82</ele>
        <time>2014-01-12T11:49:33Z</time>
      </trkpt>
      <trkpt lat="47.9779" lon="6.85611">
        <ele>873.25</ele>
        <time>2014-01-12T11:49:16Z</time>
      </trkpt>
      <trkpt lat="47.9779" lon="6.85614">
        <ele>873.21</ele>
        <time>2014-01-12T11:49:14Z</time>
      </trkpt>
      <trkpt lat="47.97794" lon="6.85642">
        <ele>872.38</ele>
        <time>2014-01-12T11:48:57Z</time>
      </trkpt>
      <trkpt lat="47.97799" lon="6.85677">
        <ele>872.02</ele>
        <time>2014-01-12T11:48:38Z</time>
      </trkpt>
      <trkpt lat="47.97804" lon="6.8571">
        <ele>870.76</ele>
        <time>2014-01-12T11:48:23Z</time>
      </trkpt>
      <trkpt lat="47.97805" lon="6.85731">
        <ele>870.34</ele>
        <time>2014-01-12T11:48:13Z</time>
      </trkpt>
      <trkpt lat="47.97798" lon="6.85766">
        <ele>869.89</ele>
        <time>2014-01-12T11:47:53Z</time>
      </trkpt>
      <trkpt lat="47.97796" lon="6.85795">
        <ele>870.45</ele>
        <time>2014-01-12T11:47:38Z</time>
      </trkpt>
      <trkpt lat="47.97795" lon="6.85825">
        <ele>871.37</ele>
        <time>2014-01-12T11:47:23Z</time>
      </trkpt>
      <trkpt lat="47.97795" lon="6.85826">
        <ele>871.48</ele>
        <time>2014-01-12T11:47:22Z</time>
      </trkpt>
      <trkpt lat="47.978" lon="6.85858">
        <ele>873.35</ele>
        <time>2014-01-12T11:47:06Z</time>
      </trkpt>
      <trkpt lat="47.97806" lon="6.85883">
        <ele>874.74</ele>
        <time>2014-01-12T11:46:50Z</time>
      </trkpt>
      <trkpt lat="47.97818" lon="6.85903">
        <ele>875.86</ele>
        <time>2014-01-12T11:46:38Z</time>
      </trkpt>
      <trkpt lat="47.97828" lon="6.85926">
        <ele>878.68</ele>
        <time>2014-01-12T11:46:22Z</time>
      </trkpt>
      <trkpt lat="47.97847" lon="6.85947">
        <ele>881.25</ele>
        <time>2014-01-12T11:46:00Z</time>
      </trkpt>
      <trkpt lat="47.97866" lon="6.85964">
        <ele>882.03</ele>
        <time>2014-01-12T11:45:39Z</time>
      </trkpt>
      <trkpt lat="47.97869" lon="6.85969">
        <ele>881.75</ele>
        <time>2014-01-12T11:45:29Z</time>
      </trkpt>
      <trkpt lat="47.97873" lon="6.85982">
        <ele>881.43</ele>
        <time>2014-01-12T11:45:10Z</time>
      </trkpt>
      <trkpt lat="47.97874" lon="6.85985">
        <ele>881.42</ele>
        <time>2014-01-12T11:45:08Z</time>
      </trkpt>
      <trkpt lat="47.97892" lon="6.86004">
        <ele>881.46</ele>
        <time>2014-01-12T11:44:50Z</time>
      </trkpt>
      <trkpt lat="47.97909" lon="6.86019">
        <ele>881.51</ele>
        <time>2014-01-12T11:44:37Z</time>
      </trkpt>
      <trkpt lat="47.97931" lon="6.86042">
        <ele>882.07</ele>
        <time>2014-01-12T11:44:20Z</time>
      </trkpt>
      <trkpt lat="47.97942" lon="6.86069">
        <ele>884.19</ele>
        <time>2014-01-12T11:44:03Z</time>
      </trkpt>
      <trkpt lat="47.97945" lon="6.86086">
        <ele>884.33</ele>
        <time>2014-01-12T11:43:43Z</time>
      </trkpt>
      <trkpt lat="47.97948" lon="6.86103">
        <ele>884.12</ele>
        <time>2014-01-12T11:43:33Z</time>
      </trkpt>
      <trkpt lat="47.97949" lon="6.86131">
        <ele>883.72</ele>
        <time>2014-01-12T11:43:17Z</time>
      </trkpt>
      <trkpt lat="47.97951" lon="6.86168">
        <ele>882.87</ele>
        <time>2014-01-12T11:42:58Z</time>
      </trkpt>
      <trkpt lat="47.97954" lon="6.86189">
        <ele>881.89</ele>
        <time>2014-01-12T11:42:43Z</time>
      </trkpt>
      <trkpt lat="47.97958" lon="6.86214">
        <ele>880.8</ele>
        <time>2014-01-12T11:42:29Z</time>
      </trkpt>
      <trkpt lat="47.97971" lon="6.86247">
        <ele>879.52</ele>
        <time>2014-01-12T11:42:15Z</time>
      </trkpt>
      <trkpt lat="47.97975" lon="6.86257">
        <ele>879.01</ele>
        <time>2014-01-12T11:42:08Z</time>
      </trkpt>
      <trkpt lat="47.97977" lon="6.86268">
        <ele>878.61</ele>
        <time>2014-01-12T11:42:02Z</time>
      </trkpt>
      <trkpt lat="47.97975" lon="6.86292">
        <ele>877.29</ele>
        <time>2014-01-12T11:41:48Z</time>
      </trkpt>
      <trkpt lat="47.97976" lon="6.86298">
        <ele>877.02</ele>
        <time>2014-01-12T11:41:45Z</time>
      </trkpt>
      <trkpt lat="47.97968" lon="6.86318">
        <ele>876.75</ele>
        <time>2014-01-12T11:41:21Z</time>
      </trkpt>
      <trkpt lat="47.97978" lon="6.86314">
        <ele>876.36</ele>
        <time>2014-01-12T11:40:56Z</time>
      </trkpt>
      <trkpt lat="47.9799" lon="6.86338">
        <ele>875.36</ele>
        <time>2014-01-12T11:40:35Z</time>
      </trkpt>
      <trkpt lat="47.97989" lon="6.86345">
        <ele>875.3</ele>
        <time>2014-01-12T11:40:32Z</time>
      </trkpt>
      <trkpt lat="47.97981" lon="6.86387">
        <ele>875.17</ele>
        <time>2014-01-12T11:40:11Z</time>
      </trkpt>
      <trkpt lat="47.9797" lon="6.86426">
        <ele>875.57</ele>
        <time>2014-01-12T11:39:51Z</time>
      </trkpt>
      <trkpt lat="47.97966" lon="6.86449">
        <ele>876.18</ele>
        <time>2014-01-12T11:39:37Z</time>
      </trkpt>
      <trkpt lat="47.97966" lon="6.86483">
        <ele>877.15</ele>
        <time>2014-01-12T11:39:20Z</time>
      </trkpt>
      <trkpt lat="47.97971" lon="6.86514">
        <ele>877.43</ele>
        <time>2014-01-12T11:39:03Z</time>
      </trkpt>
      <trkpt lat="47.97973" lon="6.86522">
        <ele>877.27</ele>
        <time>2014-01-12T11:38:58Z</time>
      </trkpt>
      <trkpt lat="47.97977" lon="6.86529">
        <ele>877.02</ele>
        <time>2014-01-12T11:38:53Z</time>
      </trkpt>
      <trkpt lat="47.97991" lon="6.86557">
        <ele>877.26</ele>
        <time>2014-01-12T11:38:36Z</time>
      </trkpt>
      <trkpt lat="47.97994" lon="6.86562">
        <ele>877.43</ele>
        <time>2014-01-12T11:38:32Z</time>
      </trkpt>
      <trkpt lat="47.97995" lon="6.86563">
        <ele>877.36</ele>
        <time>2014-01-12T11:38:29Z</time>
      </trkpt>
      <trkpt lat="47.97999" lon="6.86568">
        <ele>877.29</ele>
        <time>2014-01-12T11:38:03Z</time>
      </trkpt>
      <trkpt lat="47.97999" lon="6.86573">
        <ele>877.77</ele>
        <time>2014-01-12T11:37:31Z</time>
      </trkpt>
      <trkpt lat="47.98005" lon="6.86607">
        <ele>879.13</ele>
        <time>2014-01-12T11:37:13Z</time>
      </trkpt>
      <trkpt lat="47.98008" lon="6.86618">
        <ele>879.71</ele>
        <time>2014-01-12T11:37:03Z</time>
      </trkpt>
      <trkpt lat="47.98012" lon="6.86631">
        <ele>879.73</ele>
        <time>2014-01-12T11:36:40Z</time>
      </trkpt>
      <trkpt lat="47.98008" lon="6.86628">
        <ele>879.2</ele>
        <time>2014-01-12T11:36:02Z</time>
      </trkpt>
      <trkpt lat="47.98022" lon="6.86639">
        <ele>877.88</ele>
        <time>2014-01-12T11:35:46Z</time>
      </trkpt>
      <trkpt lat="47.98033" lon="6.86645">
        <ele>877.57</ele>
        <time>2014-01-12T11:35:36Z</time>
      </trkpt>
      <trkpt lat="47.98041" lon="6.86648">
        <ele>876.65</ele>
        <time>2014-01-12T11:35:19Z</time>
      </trkpt>
      <trkpt lat="47.98059" lon="6.86661">
        <ele>877.37</ele>
        <time>2014-01-12T11:35:02Z</time>
      </trkpt>
      <trkpt lat="47.98073" lon="6.86674">
        <ele>876.45</ele>
        <time>2014-01-12T11:34:47Z</time>
      </trkpt>
      <trkpt lat="47.98076" lon="6.86672">
        <ele>876.41</ele>
        <time>2014-01-12T11:34:24Z</time>
      </trkpt>
      <trkpt lat="47.98078" lon="6.8667">
        <ele>875.92</ele>
        <time>2014-01-12T11:33:17Z</time>
      </trkpt>
      <trkpt lat="47.98075" lon="6.86671">
        <ele>876.31</ele>
        <time>2014-01-12T11:32:49Z</time>
      </trkpt>
      <trkpt lat="47.98086" lon="6.86685">
        <ele>875.99</ele>
        <time>2014-01-12T11:32:32Z</time>
      </trkpt>
      <trkpt lat="47.98101" lon="6.86694">
        <ele>874.72</ele>
        <time>2014-01-12T11:32:15Z</time>
      </trkpt>
      <trkpt lat="47.98114" lon="6.86691">
        <ele>873.8</ele>
        <time>2014-01-12T11:32:05Z</time>
      </trkpt>
      <trkpt lat="47.9813" lon="6.86684">
        <ele>872.41</ele>
        <time>2014-01-12T11:31:50Z</time>
      </trkpt>
      <trkpt lat="47.98148" lon="6.86673">
        <ele>870.57</ele>
        <time>2014-01-12T11:31:31Z</time>
      </trkpt>
      <trkpt lat="47.98162" lon="6.86653">
        <ele>869.23</ele>
        <time>2014-01-12T11:31:16Z</time>
      </trkpt>
      <trkpt lat="47.98168" lon="6.86648">
        <ele>868.81</ele>
        <time>2014-01-12T11:31:10Z</time>
      </trkpt>
      <trkpt lat="47.98186" lon="6.86632">
        <ele>868.38</ele>
        <time>2014-01-12T11:30:53Z</time>
      </trkpt>
      <trkpt lat="47.98195" lon="6.86627">
        <ele>868.03</ele>
        <time>2014-01-12T11:30:45Z</time>
      </trkpt>
      <trkpt lat="47.98203" lon="6.86623">
        <ele>867.78</ele>
        <time>2014-01-12T11:30:39Z</time>
      </trkpt>
      <trkpt lat="47.98209" lon="6.86625">
        <ele>867.6</ele>
        <time>2014-01-12T11:30:34Z</time>
      </trkpt>
      <trkpt lat="47.98218" lon="6.86625">
        <ele>867.25</ele>
        <time>2014-01-12T11:30:27Z</time>
      </trkpt>
      <trkpt lat="47.98226" lon="6.86625">
        <ele>866.93</ele>
        <time>2014-01-12T11:30:21Z</time>
      </trkpt>
      <trkpt lat="47.98249" lon="6.86632">
        <ele>866.29</ele>
        <time>2014-01-12T11:30:03Z</time>
      </trkpt>
      <trkpt lat="47.98267" lon="6.86642">
        <ele>866.42</ele>
        <time>2014-01-12T11:29:48Z</time>
      </trkpt>
      <trkpt lat="47.98282" lon="6.86648">
        <ele>866.74</ele>
        <time>2014-01-12T11:29:36Z</time>
      </trkpt>
      <trkpt lat="47.98288" lon="6.86652">
        <ele>866.86</ele>
        <time>2014-01-12T11:29:31Z</time>
      </trkpt>
      <trkpt lat="47.98302" lon="6.86657">
        <ele>867.04</ele>
        <time>2014-01-12T11:29:20Z</time>
      </trkpt>
      <trkpt lat="47.98311" lon="6.86663">
        <ele>867.09</ele>
        <time>2014-01-12T11:29:11Z</time>
      </trkpt>
      <trkpt lat="47.98327" lon="6.86675">
        <ele>867.28</ele>
        <time>2014-01-12T11:28:57Z</time>
      </trkpt>
      <trkpt lat="47.98344" lon="6.86684">
        <ele>867.74</ele>
        <time>2014-01-12T11:28:41Z</time>
      </trkpt>
      <trkpt lat="47.98359" lon="6.86695">
        <ele>866.88</ele>
        <time>2014-01-12T11:28:25Z</time>
      </trkpt>
      <trkpt lat="47.98367" lon="6.867">
        <ele>866.89</ele>
        <time>2014-01-12T11:28:16Z</time>
      </trkpt>
      <trkpt lat="47.98387" lon="6.86709">
        <ele>868.2</ele>
        <time>2014-01-12T11:27:58Z</time>
      </trkpt>
      <trkpt lat="47.98404" lon="6.86708">
        <ele>869.11</ele>
        <time>2014-01-12T11:27:41Z</time>
      </trkpt>
      <trkpt lat="47.98424" lon="6.86718">
        <ele>870.05</ele>
        <time>2014-01-12T11:27:23Z</time>
      </trkpt>
      <trkpt lat="47.98441" lon="6.86736">
        <ele>870.7</ele>
        <time>2014-01-12T11:27:03Z</time>
      </trkpt>
      <trkpt lat="47.98447" lon="6.86734">
        <ele>870.78</ele>
        <time>2014-01-12T11:26:49Z</time>
      </trkpt>
      <trkpt lat="47.98454" lon="6.86737">
        <ele>870.97</ele>
        <time>2014-01-12T11:26:34Z</time>
      </trkpt>
      <trkpt lat="47.98454" lon="6.86742">
        <ele>871.12</ele>
        <time>2014-01-12T11:26:15Z</time>
      </trkpt>
      <trkpt lat="47.98465" lon="6.86751">
        <ele>871.53</ele>
        <time>2014-01-12T11:25:59Z</time>
      </trkpt>
      <trkpt lat="47.9848" lon="6.8677">
        <ele>871.99</ele>
        <time>2014-01-12T11:25:43Z</time>
      </trkpt>
      <trkpt lat="47.98486" lon="6.86776">
        <ele>872.11</ele>
        <time>2014-01-12T11:25:37Z</time>
      </trkpt>
      <trkpt lat="47.98493" lon="6.86788">
        <ele>872.35</ele>
        <time>2014-01-12T11:25:27Z</time>
      </trkpt>
      <trkpt lat="47.98511" lon="6.86809">
        <ele>872.74</ele>
        <time>2014-01-12T11:25:08Z</time>
      </trkpt>
      <trkpt lat="47.98531" lon="6.86826">
        <ele>873.29</ele>
        <time>2014-01-12T11:24:48Z</time>
      </trkpt>
      <trkpt lat="47.98554" lon="6.86838">
        <ele>873.85</ele>
        <time>2014-01-12T11:24:29Z</time>
      </trkpt>
      <trkpt lat="47.98574" lon="6.86846">
        <ele>873.93</ele>
        <time>2014-01-12T11:24:11Z</time>
      </trkpt>
      <trkpt lat="47.98594" lon="6.86857">
        <ele>874.18</ele>
        <time>2014-01-12T11:23:54Z</time>
      </trkpt>
      <trkpt lat="47.98616" lon="6.86876">
        <ele>874.62</ele>
        <time>2014-01-12T11:23:33Z</time>
      </trkpt>
      <trkpt lat="47.98638" lon="6.869">
        <ele>874.77</ele>
        <time>2014-01-12T11:23:12Z</time>
      </trkpt>
      <trkpt lat="47.98659" lon="6.86924">
        <ele>875.18</ele>
        <time>2014-01-12T11:22:51Z</time>
      </trkpt>
      <trkpt lat="47.98668" lon="6.86938">
        <ele>875.62</ele>
        <time>2014-01-12T11:22:41Z</time>
      </trkpt>
      <trkpt lat="47.98678" lon="6.86948">
        <ele>875.78</ele>
        <time>2014-01-12T11:22:28Z</time>
      </trkpt>
      <trkpt lat="47.98683" lon="6.86956">
        <ele>875.96</ele>
        <time>2014-01-12T11:22:23Z</time>
      </trkpt>
      <trkpt lat="47.98685" lon="6.86958">
        <ele>875.89</ele>
        <time>2014-01-12T11:22:21Z</time>
      </trkpt>
      <trkpt lat="47.98689" lon="6.86966">
        <ele>876.06</ele>
        <time>2014-01-12T11:22:02Z</time>
      </trkpt>
      <trkpt lat="47.98696" lon="6.86972">
        <ele>876.12</ele>
        <time>2014-01-12T11:21:52Z</time>
      </trkpt>
      <trkpt lat="47.98705" lon="6.86978">
        <ele>876.29</ele>
        <time>2014-01-12T11:21:29Z</time>
      </trkpt>
      <trkpt lat="47.98709" lon="6.86979">
        <ele>875.7</ele>
        <time>2014-01-12T11:21:11Z</time>
      </trkpt>
      <trkpt lat="47.98711" lon="6.86978">
        <ele>874.72</ele>
        <time>2014-01-12T11:20:54Z</time>
      </trkpt>
      <trkpt lat="47.98713" lon="6.86978">
        <ele>874.98</ele>
        <time>2014-01-12T11:20:36Z</time>
      </trkpt>
      <trkpt lat="47.98717" lon="6.86982">
        <ele>874.78</ele>
        <time>2014-01-12T11:20:32Z</time>
      </trkpt>
      <trkpt lat="47.98722" lon="6.86984">
        <ele>874.51</ele>
        <time>2014-01-12T11:20:22Z</time>
      </trkpt>
      <trkpt lat="47.98719" lon="6.86986">
        <ele>874.71</ele>
        <time>2014-01-12T11:19:48Z</time>
      </trkpt>
      <trkpt lat="47.98718" lon="6.86989">
        <ele>875.49</ele>
        <time>2014-01-12T11:19:08Z</time>
      </trkpt>
      <trkpt lat="47.98723" lon="6.86998">
        <ele>876.12</ele>
        <time>2014-01-12T11:18:51Z</time>
      </trkpt>
      <trkpt lat="47.98725" lon="6.87004">
        <ele>876.15</ele>
        <time>2014-01-12T11:18:47Z</time>
      </trkpt>
      <trkpt lat="47.98732" lon="6.87018">
        <ele>875.5</ele>
        <time>2014-01-12T11:18:36Z</time>
      </trkpt>
      <trkpt lat="47.98736" lon="6.87021">
        <ele>875.57</ele>
        <time>2014-01-12T11:18:25Z</time>
      </trkpt>
      <trkpt lat="47.98735" lon="6.87022">
        <ele>875.25</ele>
        <time>2014-01-12T11:17:35Z</time>
      </trkpt>
      <trkpt lat="47.98736" lon="6.87021">
        <ele>875.19</ele>
        <time>2014-01-12T11:16:56Z</time>
      </trkpt>
      <trkpt lat="47.98744" lon="6.87012">
        <ele>875.59</ele>
        <time>2014-01-12T11:16:35Z</time>
      </trkpt>
      <trkpt lat="47.98756" lon="6.87">
        <ele>875.48</ele>
        <time>2014-01-12T11:16:21Z</time>
      </trkpt>
      <trkpt lat="47.9876" lon="6.86993">
        <ele>875.25</ele>
        <time>2014-01-12T11:16:16Z</time>
      </trkpt>
      <trkpt lat="47.9876" lon="6.86992">
        <ele>875.22</ele>
        <time>2014-01-12T11:16:15Z</time>
      </trkpt>
      <trkpt lat="47.9877" lon="6.8697">
        <ele>874.01</ele>
        <time>2014-01-12T11:15:56Z</time>
      </trkpt>
      <trkpt lat="47.98775" lon="6.86959">
        <ele>873.21</ele>
        <time>2014-01-12T11:15:46Z</time>
      </trkpt>
      <trkpt lat="47.98782" lon="6.86946">
        <ele>871.98</ele>
        <time>2014-01-12T11:15:24Z</time>
      </trkpt>
      <trkpt lat="47.98784" lon="6.86926">
        <ele>871.03</ele>
        <time>2014-01-12T11:15:07Z</time>
      </trkpt>
      <trkpt lat="47.98788" lon="6.86905">
        <ele>868.74</ele>
        <time>2014-01-12T11:14:50Z</time>
      </trkpt>
      <trkpt lat="47.98791" lon="6.86878">
        <ele>866.64</ele>
        <time>2014-01-12T11:14:32Z</time>
      </trkpt>
      <trkpt lat="47.98798" lon="6.86848">
        <ele>864.09</ele>
        <time>2014-01-12T11:14:12Z</time>
      </trkpt>
      <trkpt lat="47.98799" lon="6.86842">
        <ele>863.59</ele>
        <time>2014-01-12T11:14:08Z</time>
      </trkpt>
      <trkpt lat="47.98802" lon="6.86836">
        <ele>862.91</ele>
        <time>2014-01-12T11:14:02Z</time>
      </trkpt>
      <trkpt lat="47.9881" lon="6.86851">
        <ele>861.81</ele>
        <time>2014-01-12T11:13:43Z</time>
      </trkpt>
      <trkpt lat="47.98814" lon="6.86864">
        <ele>861.64</ele>
        <time>2014-01-12T11:13:33Z</time>
      </trkpt>
      <trkpt lat="47.98821" lon="6.86861">
        <ele>859.49</ele>
        <time>2014-01-12T11:13:12Z</time>
      </trkpt>
      <trkpt lat="47.9882" lon="6.86846">
        <ele>857.37</ele>
        <time>2014-01-12T11:12:52Z</time>
      </trkpt>
      <trkpt lat="47.98828" lon="6.8684">
        <ele>855.44</ele>
        <time>2014-01-12T11:12:34Z</time>
      </trkpt>
      <trkpt lat="47.9883" lon="6.86848">
        <ele>852.36</ele>
        <time>2014-01-12T11:12:17Z</time>
      </trkpt>
      <trkpt lat="47.9884" lon="6.86851">
        <ele>849.31</ele>
        <time>2014-01-12T11:11:57Z</time>
      </trkpt>
      <trkpt lat="47.9885" lon="6.86858">
        <ele>846.29</ele>
        <time>2014-01-12T11:11:39Z</time>
      </trkpt>
      <trkpt lat="47.98859" lon="6.86871">
        <ele>843.85</ele>
        <time>2014-01-12T11:11:19Z</time>
      </trkpt>
      <trkpt lat="47.98869" lon="6.86873">
        <ele>842.65</ele>
        <time>2014-01-12T11:11:00Z</time>
      </trkpt>
      <trkpt lat="47.98869" lon="6.86867">
        <ele>842.48</ele>
        <time>2014-01-12T11:10:31Z</time>
      </trkpt>
      <trkpt lat="47.98871" lon="6.86867">
        <ele>841.71</ele>
        <time>2014-01-12T11:10:04Z</time>
      </trkpt>
      <trkpt lat="47.9888" lon="6.86878">
        <ele>839.86</ele>
        <time>2014-01-12T11:09:45Z</time>
      </trkpt>
      <trkpt lat="47.98882" lon="6.86887">
        <ele>839.57</ele>
        <time>2014-01-12T11:09:39Z</time>
      </trkpt>
      <trkpt lat="47.98887" lon="6.86896">
        <ele>838.3</ele>
        <time>2014-01-12T11:09:22Z</time>
      </trkpt>
      <trkpt lat="47.98907" lon="6.86911">
        <ele>836</ele>
        <time>2014-01-12T11:09:02Z</time>
      </trkpt>
      <trkpt lat="47.9891" lon="6.86911">
        <ele>835.76</ele>
        <time>2014-01-12T11:08:59Z</time>
      </trkpt>
      <trkpt lat="47.98911" lon="6.86911">
        <ele>835.68</ele>
        <time>2014-01-12T11:08:58Z</time>
      </trkpt>
      <trkpt lat="47.9892" lon="6.86906">
        <ele>834.05</ele>
        <time>2014-01-12T11:08:43Z</time>
      </trkpt>
      <trkpt lat="47.98936" lon="6.86909">
        <ele>833.71</ele>
        <time>2014-01-12T11:08:26Z</time>
      </trkpt>
      <trkpt lat="47.98952" lon="6.86923">
        <ele>833.57</ele>
        <time>2014-01-12T11:08:09Z</time>
      </trkpt>
      <trkpt lat="47.98954" lon="6.86925">
        <ele>833.52</ele>
        <time>2014-01-12T11:08:07Z</time>
      </trkpt>
      <trkpt lat="47.98964" lon="6.86935">
        <ele>833.3</ele>
        <time>2014-01-12T11:07:50Z</time>
      </trkpt>
      <trkpt lat="47.98979" lon="6.8695">
        <ele>833.42</ele>
        <time>2014-01-12T11:07:34Z</time>
      </trkpt>
      <trkpt lat="47.99001" lon="6.86961">
        <ele>833.06</ele>
        <time>2014-01-12T11:07:15Z</time>
      </trkpt>
      <trkpt lat="47.99019" lon="6.8697">
        <ele>832.53</ele>
        <time>2014-01-12T11:06:57Z</time>
      </trkpt>
      <trkpt lat="47.99021" lon="6.86971">
        <ele>832.48</ele>
        <time>2014-01-12T11:06:54Z</time>
      </trkpt>
      <trkpt lat="47.99023" lon="6.86972">
        <ele>832.45</ele>
        <time>2014-01-12T11:06:50Z</time>
      </trkpt>
      <trkpt lat="47.99028" lon="6.86974">
        <ele>832.02</ele>
        <time>2014-01-12T11:06:30Z</time>
      </trkpt>
      <trkpt lat="47.99035" lon="6.86975">
        <ele>830.31</ele>
        <time>2014-01-12T11:06:23Z</time>
      </trkpt>
      <trkpt lat="47.99039" lon="6.86966">
        <ele>827.3</ele>
        <time>2014-01-12T11:06:07Z</time>
      </trkpt>
      <trkpt lat="47.99043" lon="6.86954">
        <ele>824.28</ele>
        <time>2014-01-12T11:05:52Z</time>
      </trkpt>
      <trkpt lat="47.99047" lon="6.86938">
        <ele>821.2</ele>
        <time>2014-01-12T11:05:36Z</time>
      </trkpt>
      <trkpt lat="47.99033" lon="6.8692">
        <ele>819.52</ele>
        <time>2014-01-12T11:05:11Z</time>
      </trkpt>
      <trkpt lat="47.99033" lon="6.86911">
        <ele>817.66</ele>
        <time>2014-01-12T11:04:58Z</time>
      </trkpt>
      <trkpt lat="47.99047" lon="6.86909">
        <ele>815.08</ele>
        <time>2014-01-12T11:04:38Z</time>
      </trkpt>
      <trkpt lat="47.99063" lon="6.86906">
        <ele>812.06</ele>
        <time>2014-01-12T11:04:17Z</time>
      </trkpt>
      <trkpt lat="47.99069" lon="6.86904">
        <ele>811.14</ele>
        <time>2014-01-12T11:03:51Z</time>
      </trkpt>
      <trkpt lat="47.99082" lon="6.86902">
        <ele>808.09</ele>
        <time>2014-01-12T11:03:31Z</time>
      </trkpt>
      <trkpt lat="47.99093" lon="6.86896">
        <ele>805.19</ele>
        <time>2014-01-12T11:03:12Z</time>
      </trkpt>
      <trkpt lat="47.99104" lon="6.86882">
        <ele>802.18</ele>
        <time>2014-01-12T11:02:56Z</time>
      </trkpt>
      <trkpt lat="47.99104" lon="6.86864">
        <ele>800.67</ele>
        <time>2014-01-12T11:02:38Z</time>
      </trkpt>
      <trkpt lat="47.99096" lon="6.86859">
        <ele>799.6</ele>
        <time>2014-01-12T11:02:18Z</time>
      </trkpt>
      <trkpt lat="47.9909" lon="6.86844">
        <ele>796.57</ele>
        <time>2014-01-12T11:02:00Z</time>
      </trkpt>
      <trkpt lat="47.99088" lon="6.86829">
        <ele>793.85</ele>
        <time>2014-01-12T11:01:41Z</time>
      </trkpt>
      <trkpt lat="47.99099" lon="6.86815">
        <ele>790.84</ele>
        <time>2014-01-12T11:01:23Z</time>
      </trkpt>
      <trkpt lat="47.99102" lon="6.86794">
        <ele>787.65</ele>
        <time>2014-01-12T11:01:06Z</time>
      </trkpt>
      <trkpt lat="47.99105" lon="6.86774">
        <ele>784.53</ele>
        <time>2014-01-12T11:00:50Z</time>
      </trkpt>
      <trkpt lat="47.99114" lon="6.86771">
        <ele>783.67</ele>
        <time>2014-01-12T11:00:34Z</time>
      </trkpt>
      <trkpt lat="47.99112" lon="6.86772">
        <ele>782.69</ele>
        <time>2014-01-12T11:00:17Z</time>
      </trkpt>
      <trkpt lat="47.99123" lon="6.86771">
        <ele>781.38</ele>
        <time>2014-01-12T10:59:52Z</time>
      </trkpt>
      <trkpt lat="47.99124" lon="6.86777">
        <ele>781.5</ele>
        <time>2014-01-12T10:59:24Z</time>
      </trkpt>
      <trkpt lat="47.99128" lon="6.86765">
        <ele>780.82</ele>
        <time>2014-01-12T10:58:58Z</time>
      </trkpt>
      <trkpt lat="47.99138" lon="6.86755">
        <ele>777.79</ele>
        <time>2014-01-12T10:58:37Z</time>
      </trkpt>
      <trkpt lat="47.99151" lon="6.86743">
        <ele>774.78</ele>
        <time>2014-01-12T10:58:21Z</time>
      </trkpt>
      <trkpt lat="47.99164" lon="6.86728">
        <ele>771.9</ele>
        <time>2014-01-12T10:58:02Z</time>
      </trkpt>
      <trkpt lat="47.99181" lon="6.86714">
        <ele>768.74</ele>
        <time>2014-01-12T10:57:42Z</time>
      </trkpt>
      <trkpt lat="47.99193" lon="6.86703">
        <ele>765.87</ele>
        <time>2014-01-12T10:57:24Z</time>
      </trkpt>
      <trkpt lat="47.9921" lon="6.86697">
        <ele>762.83</ele>
        <time>2014-01-12T10:57:07Z</time>
      </trkpt>
      <trkpt lat="47.99222" lon="6.86691">
        <ele>759.78</ele>
        <time>2014-01-12T10:56:51Z</time>
      </trkpt>
      <trkpt lat="47.99231" lon="6.8668">
        <ele>756.76</ele>
        <time>2014-01-12T10:56:35Z</time>
      </trkpt>
      <trkpt lat="47.99245" lon="6.86662">
        <ele>754.1</ele>
        <time>2014-01-12T10:56:17Z</time>
      </trkpt>
      <trkpt lat="47.99258" lon="6.86659">
        <ele>753.24</ele>
        <time>2014-01-12T10:56:01Z</time>
      </trkpt>
      <trkpt lat="47.99268" lon="6.86665">
        <ele>752.38</ele>
        <time>2014-01-12T10:55:38Z</time>
      </trkpt>
      <trkpt lat="47.99289" lon="6.86664">
        <ele>750.28</ele>
        <time>2014-01-12T10:55:17Z</time>
      </trkpt>
      <trkpt lat="47.99306" lon="6.86666">
        <ele>748.37</ele>
        <time>2014-01-12T10:55:01Z</time>
      </trkpt>
      <trkpt lat="47.99314" lon="6.86667">
        <ele>747.17</ele>
        <time>2014-01-12T10:54:51Z</time>
      </trkpt>
      <trkpt lat="47.9933" lon="6.86664">
        <ele>744.78</ele>
        <time>2014-01-12T10:54:33Z</time>
      </trkpt>
      <trkpt lat="47.99349" lon="6.86668">
        <ele>742.12</ele>
        <time>2014-01-12T10:54:12Z</time>
      </trkpt>
      <trkpt lat="47.99369" lon="6.86666">
        <ele>740.02</ele>
        <time>2014-01-12T10:53:54Z</time>
      </trkpt>
      <trkpt lat="47.99372" lon="6.86666">
        <ele>739.56</ele>
        <time>2014-01-12T10:53:50Z</time>
      </trkpt>
      <trkpt lat="47.99391" lon="6.86663">
        <ele>737.05</ele>
        <time>2014-01-12T10:53:32Z</time>
      </trkpt>
      <trkpt lat="47.99402" lon="6.86658">
        <ele>734.82</ele>
        <time>2014-01-12T10:53:18Z</time>
      </trkpt>
      <trkpt lat="47.99403" lon="6.86659">
        <ele>734.62</ele>
        <time>2014-01-12T10:53:17Z</time>
      </trkpt>
      <trkpt lat="47.99417" lon="6.86659">
        <ele>731.83</ele>
        <time>2014-01-12T10:53:02Z</time>
      </trkpt>
      <trkpt lat="47.9944" lon="6.86666">
        <ele>729.3</ele>
        <time>2014-01-12T10:52:41Z</time>
      </trkpt>
      <trkpt lat="47.99441" lon="6.86667">
        <ele>729.14</ele>
        <time>2014-01-12T10:52:40Z</time>
      </trkpt>
      <trkpt lat="47.99454" lon="6.86677">
        <ele>727.43</ele>
        <time>2014-01-12T10:52:26Z</time>
      </trkpt>
      <trkpt lat="47.9946" lon="6.86683">
        <ele>726.51</ele>
        <time>2014-01-12T10:52:19Z</time>
      </trkpt>
      <trkpt lat="47.99472" lon="6.86681">
        <ele>724.18</ele>
        <time>2014-01-12T10:51:57Z</time>
      </trkpt>
      <trkpt lat="47.99474" lon="6.86668">
        <ele>721.57</ele>
        <time>2014-01-12T10:51:41Z</time>
      </trkpt>
      <trkpt lat="47.99474" lon="6.86666">
        <ele>721.37</ele>
        <time>2014-01-12T10:51:40Z</time>
      </trkpt>
      <trkpt lat="47.99464" lon="6.86648">
        <ele>718.97</ele>
        <time>2014-01-12T10:51:24Z</time>
      </trkpt>
      <trkpt lat="47.99461" lon="6.8664">
        <ele>718.21</ele>
        <time>2014-01-12T10:51:17Z</time>
      </trkpt>
      <trkpt lat="47.99451" lon="6.86626">
        <ele>715.27</ele>
        <time>2014-01-12T10:50:54Z</time>
      </trkpt>
      <trkpt lat="47.99441" lon="6.86603">
        <ele>712.07</ele>
        <time>2014-01-12T10:50:32Z</time>
      </trkpt>
      <trkpt lat="47.99449" lon="6.86597">
        <ele>708.98</ele>
        <time>2014-01-12T10:50:13Z</time>
      </trkpt>
      <trkpt lat="47.99465" lon="6.86599">
        <ele>705.93</ele>
        <time>2014-01-12T10:49:53Z</time>
      </trkpt>
      <trkpt lat="47.99478" lon="6.86599">
        <ele>703.2</ele>
        <time>2014-01-12T10:49:37Z</time>
      </trkpt>
      <trkpt lat="47.99491" lon="6.86607">
        <ele>699.92</ele>
        <time>2014-01-12T10:49:20Z</time>
      </trkpt>
      <trkpt lat="47.99495" lon="6.8661">
        <ele>699.38</ele>
        <time>2014-01-12T10:49:15Z</time>
      </trkpt>
      <trkpt lat="47.99496" lon="6.86612">
        <ele>699.14</ele>
        <time>2014-01-12T10:49:13Z</time>
      </trkpt>
      <trkpt lat="47.99502" lon="6.86609">
        <ele>697.85</ele>
        <time>2014-01-12T10:48:45Z</time>
      </trkpt>
      <trkpt lat="47.99501" lon="6.86598">
        <ele>695.8</ele>
        <time>2014-01-12T10:48:25Z</time>
      </trkpt>
      <trkpt lat="47.99493" lon="6.86571">
        <ele>692.78</ele>
        <time>2014-01-12T10:48:08Z</time>
      </trkpt>
      <trkpt lat="47.99492" lon="6.86566">
        <ele>692.17</ele>
        <time>2014-01-12T10:48:05Z</time>
      </trkpt>
      <trkpt lat="47.99492" lon="6.86563">
        <ele>691.9</ele>
        <time>2014-01-12T10:48:03Z</time>
      </trkpt>
      <trkpt lat="47.99492" lon="6.86562">
        <ele>691.75</ele>
        <time>2014-01-12T10:48:02Z</time>
      </trkpt>
      <trkpt lat="47.99491" lon="6.86545">
        <ele>689.53</ele>
        <time>2014-01-12T10:47:51Z</time>
      </trkpt>
      <trkpt lat="47.99489" lon="6.86535">
        <ele>688.22</ele>
        <time>2014-01-12T10:47:43Z</time>
      </trkpt>
      <trkpt lat="47.99485" lon="6.86527">
        <ele>687.2</ele>
        <time>2014-01-12T10:47:35Z</time>
      </trkpt>
      <trkpt lat="47.99479" lon="6.86522">
        <ele>686.42</ele>
        <time>2014-01-12T10:47:16Z</time>
      </trkpt>
      <trkpt lat="47.99476" lon="6.86521">
        <ele>686.36</ele>
        <time>2014-01-12T10:46:50Z</time>
      </trkpt>
      <trkpt lat="47.99476" lon="6.86517">
        <ele>685.9</ele>
        <time>2014-01-12T10:46:29Z</time>
      </trkpt>
      <trkpt lat="47.99476" lon="6.86503">
        <ele>685.85</ele>
        <time>2014-01-12T10:46:09Z</time>
      </trkpt>
      <trkpt lat="47.99476" lon="6.86502">
        <ele>685.85</ele>
        <time>2014-01-12T10:46:08Z</time>
      </trkpt>
      <trkpt lat="47.99476" lon="6.86502">
        <ele>685.85</ele>
        <time>2014-01-12T10:46:08Z</time>
      </trkpt>
    </trkseg>
  </trk>
</gpx>